Flight Track Log - Related Links

Times and Time Zones

All times are in EDT time to prevent confusion due to time zone crossing. See the AFL150 flight status page for this flight to view local times or setup timezone preferences in your user account.

Time Position Orientation Groundspeed Altitude Reporting Facility
EDT Latitude Longitude Course Direction KTS MPH feet Rate Location/Type
Mon 06:41:36 AM 55.9660 37.3820 254° West 188 216 1,000  Level FlightAware ADS-B
Mon 06:41:58 AM 55.9600 37.3460 253° West 182 209 2,200 2,757 Climbing FlightAware ADS-B
Mon 06:42:13 AM 55.9570 37.3240 256° West 179 206 2,700 1,714 Climbing FlightAware ADS-B
Mon 06:42:33 AM 55.9530 37.2950 256° West 189 217 3,200 1,135 Climbing FlightAware ADS-B
Mon 06:42:50 AM 55.9500 37.2680 259° West 208 239 3,400 900 Climbing FlightAware ADS-B
Mon 06:43:13 AM 55.9440 37.2270 255° West 235 270 3,800 909 Climbing FlightAware ADS-B
Mon 06:43:23 AM 55.9430 37.2090 264° West 247 284 3,900 1,800 Climbing FlightAware ADS-B
Mon 06:43:43 AM 55.9470 37.1660 279° West 255 293 4,700 2,700 Climbing FlightAware ADS-B
Mon 06:44:03 AM 55.9530 37.1280 286° West 252 290 5,700 2,400 Climbing FlightAware ADS-B
Mon 06:44:23 AM 55.9640 37.0870 296° West 268 308 6,300 1,867 Climbing FlightAware ADS-B
Mon 06:44:48 AM 55.9780 37.0360 296° West 272 313 7,100 2,250 Climbing FlightAware ADS-B
Mon 06:45:03 AM 55.9860 37.0060 295° West 269 310 7,800 2,700 Climbing FlightAware ADS-B
Mon 06:45:28 AM 56.0000 36.9570 297° West 271 312 8,900 2,700 Climbing FlightAware ADS-B
Mon 06:45:43 AM 56.0080 36.9260 295° West 272 313 9,600 2,073 Climbing FlightAware ADS-B
Mon 06:46:23 AM 56.0300 36.8430 295° West 291 335 10,800 1,360 Climbing FlightAware ADS-B
Mon 06:46:58 AM 56.0510 36.7620 295° West 327 376 11,300 943 Climbing FlightAware ADS-B
Mon 06:47:33 AM 56.0740 36.6760 296° West 356 410 11,900 1,726 Climbing FlightAware ADS-B
Mon 06:48:11 AM 56.1000 36.5780 295° West 361 415 13,400 2,229 Climbing FlightAware ADS-B
Mon 06:48:43 AM 56.1250 36.4820 295° West 372 428 14,500 2,149 Climbing FlightAware ADS-B
Mon 06:49:18 AM 56.1510 36.3850 296° West 376 433 15,800 2,057 Climbing FlightAware ADS-B
Mon 06:49:53 AM 56.1770 36.2850 295° West 383 441 16,900 1,886 Climbing FlightAware ADS-B
Mon 06:50:28 AM 56.2030 36.1860 295° West 391 450 18,000 1,971 Climbing FlightAware ADS-B
Mon 06:51:03 AM 56.2300 36.0810 295° West 394 453 19,200 1,714 Climbing FlightAware ADS-B
Mon 06:51:38 AM 56.2580 35.9730 295° West 407 468 20,000 1,606 Climbing FlightAware ADS-B
Mon 06:52:14 AM 56.2850 35.8650 294° West 411 473 21,100 1,800 Climbing FlightAware ADS-B
Mon 06:52:48 AM 56.3130 35.7560 295° West 415 478 22,100 1,565 Climbing FlightAware ADS-B
Mon 06:53:23 AM 56.3400 35.6480 294° West 422 486 22,900 1,385 Climbing FlightAware ADS-B
Mon 06:53:53 AM 56.3650 35.5490 295° West 428 493 23,600 1,457 Climbing FlightAware ADS-B
Mon 06:54:33 AM 56.4000 35.4180 296° West 436 502 24,600 1,280 Climbing FlightAware ADS-B
Mon 06:55:08 AM 56.4380 35.3090 302° West 452 520 25,200 1,200 Climbing FlightAware ADS-B
Mon 06:55:43 AM 56.4870 35.2070 311° West 463 533 26,000 1,286 Climbing FlightAware ADS-B
Mon 06:56:18 AM 56.5430 35.1170 318° Northwest 476 548 26,700 1,200 Climbing FlightAware ADS-B
Mon 06:56:53 AM 56.6100 35.0410 328° Northwest 488 562 27,400 1,114 Climbing FlightAware ADS-B
Mon 06:57:28 AM 56.6820 34.9840 337° Northwest 503 579 28,000 880 Climbing FlightAware ADS-B
Mon 06:58:08 AM 56.7730 34.9450 347° North 520 598 28,500 706 Climbing FlightAware ADS-B
Mon 06:58:53 AM 56.8750 34.9380 358° North 536 617 29,000 1,023 Climbing FlightAware ADS-B
Mon 06:59:36 AM 56.9880 34.9490 North 535 616 30,000 1,280 Climbing FlightAware ADS-B
Mon 07:00:08 AM 57.0690 34.9530 North 534 615 30,600 985 Climbing FlightAware ADS-B
Mon 07:00:43 AM 57.1570 34.9560 North 535 616 31,100 845 Climbing FlightAware ADS-B
Mon 07:01:19 AM 57.2430 34.9580 North 539 620 31,600 857 Climbing FlightAware ADS-B
Mon 07:01:53 AM 57.3310 34.9610 North 540 621 32,100 1,135 Climbing FlightAware ADS-B
Mon 07:02:33 AM 57.4290 34.9640 North 533 613 33,000 1,200 Climbing FlightAware ADS-B
Mon 07:03:13 AM 57.5160 34.9620 359° North 523 602 33,700 857 Climbing FlightAware ADS-B
Mon 07:03:43 AM 57.5880 34.9470 354° North 519 597 34,000 243 Climbing FlightAware ADS-B
Mon 07:04:27 AM 57.6790 34.9090 347° North 512 589 34,000  Level FlightAware ADS-B
Mon 07:05:06 AM 57.7610 34.8560 341° North 502 578 34,000  Level FlightAware ADS-B
Mon 07:05:38 AM 57.8480 34.7760 334° Northwest 489 563 34,000  Level FlightAware ADS-B
Mon 07:06:13 AM 57.9130 34.7000 328° Northwest 479 551 34,000  Level FlightAware ADS-B
Mon 07:06:48 AM 57.9760 34.6110 323° Northwest 476 548 34,000  Level FlightAware ADS-B
Mon 07:07:23 AM 58.0330 34.5290 323° Northwest 477 549 34,000  Level FlightAware ADS-B
Mon 07:07:58 AM 58.0960 34.4420 324° Northwest 477 549 34,000  Level FlightAware ADS-B
Mon 07:08:33 AM 58.1600 34.3510 323° Northwest 477 549 34,000  Level FlightAware ADS-B
Mon 07:09:08 AM 58.2200 34.2600 321° Northwest 473 544 34,000  Level FlightAware ADS-B
Mon 07:09:43 AM 58.2800 34.1680 321° Northwest 473 544 34,000  Level FlightAware ADS-B
Mon 07:10:28 AM 58.3570 34.0490 321° Northwest 476 548 34,000  Level FlightAware ADS-B
Mon 07:10:58 AM 58.4000 33.9830 321° Northwest 476 548 34,000  Level FlightAware ADS-B
Mon 07:11:33 AM 58.4650 33.8830 321° Northwest 476 548 34,000  Level FlightAware ADS-B
Mon 07:12:15 AM 58.5270 33.7870 321° Northwest 476 548 34,000  Level FlightAware ADS-B
Mon 07:12:52 AM 58.5810 33.7030 321° Northwest 476 548 34,000  Level FlightAware ADS-B
Mon 07:13:28 AM 58.6330 33.6220 321° Northwest 476 548 34,000  Level FlightAware ADS-B
Mon 07:14:03 AM 58.7240 33.4790 321° Northwest 476 548 34,000  Level FlightAware ADS-B
Mon 07:14:41 AM 58.7740 33.3920 318° Northwest 475 547 34,000  Level FlightAware ADS-B
Mon 07:15:18 AM 58.8250 33.3030 318° Northwest 475 547 34,000  Level FlightAware ADS-B
Mon 07:15:55 AM 58.8770 33.2130 318° Northwest 475 547 34,000  Level FlightAware ADS-B
Mon 07:16:31 AM 58.9270 33.1260 318° Northwest 475 547 34,000  Level FlightAware ADS-B
Mon 07:17:08 AM 58.9780 33.0370 318° Northwest 475 547 34,000  Level FlightAware ADS-B
Mon 07:17:45 AM 59.0290 32.9470 318° Northwest 475 547 34,000  Level FlightAware ADS-B
Mon 07:17:55 AM 59.0740 32.8030 301° West 34,000  Level FlightAware ADS-B
Mon 07:18:00 AM 59.0870 32.7770 314° West 473 544 34,000  Level FlightAware ADS-B
Mon 07:18:35 AM 59.1410 32.6690 314° West 472 543 34,000 343 Level FlightAware ADS-B
Mon 07:19:10 AM 59.1940 32.5660 315° West 472 543 34,400 676 Climbing FlightAware ADS-B
Mon 07:19:46 AM 59.2460 32.4600 314° West 472 543 34,800 686 Climbing FlightAware ADS-B
Mon 07:20:20 AM 59.3010 32.3500 314° West 473 544 35,200 696 Climbing FlightAware ADS-B
Mon 07:20:55 AM 59.3470 32.2560 314° West 473 544 35,600 632 Climbing FlightAware ADS-B
Mon 07:21:36 AM 59.4100 32.1190 312° West 469 540 36,000 320 Climbing FlightAware ADS-B
Mon 07:22:10 AM 59.4530 31.9950 304° West 467 537 36,000  Level FlightAware ADS-B
Mon 07:22:50 AM 59.4920 31.8470 297° West 458 527 36,000  Level FlightAware ADS-B
Mon 07:23:21 AM 59.5180 31.7330 294° West 454 522 36,000  Level FlightAware ADS-B
Mon 07:24:00 AM 59.5460 31.5840 290° West 440 506 36,000  Level FlightAware ADS-B
Mon 07:24:30 AM 59.5510 31.4670 275° West 436 502 36,000  Level FlightAware ADS-B
Mon 07:25:05 AM 59.5560 31.3220 274° West 438 504 36,000  Level FlightAware ADS-B
Mon 07:25:45 AM 59.5640 31.1640 276° West 440 506 36,000  Level FlightAware ADS-B
Mon 07:26:15 AM 59.5700 31.0450 276° West 441 507 36,000  Level FlightAware ADS-B
Mon 07:27:02 AM 59.5780 30.8680 275° West 441 507 36,000  Level FlightAware ADS-B
Mon 07:27:34 AM 59.5830 30.7500 275° West 443 510 36,000  Level FlightAware ADS-B
Mon 07:28:10 AM 59.5900 30.5940 275° West 444 511 36,000  Level FlightAware ADS-B
Mon 07:28:46 AM 59.5960 30.4470 275° West 446 513 36,000  Level FlightAware ADS-B
Mon 07:29:29 AM 59.6030 30.2740 275° West 449 517 36,000  Level FlightAware ADS-B
Mon 07:30:01 AM 59.6080 30.1400 274° West 450 518 36,000  Level FlightAware ADS-B
Mon 07:30:37 AM 59.6140 29.9930 275° West 450 518 36,000  Level FlightAware ADS-B
Mon 07:31:13 AM 59.6190 29.8480 274° West 448 516 36,000  Level FlightAware ADS-B
Mon 07:31:50 AM 59.6240 29.7030 274° West 446 513 36,000  Level FlightAware ADS-B
Mon 07:32:20 AM 59.6290 29.5770 275° West 445 512 36,000  Level FlightAware ADS-B
Mon 07:32:54 AM 59.6330 29.4490 274° West 443 510 36,000  Level FlightAware ADS-B
Mon 07:33:33 AM 59.6380 29.2880 274° West 444 511 36,000  Level FlightAware ADS-B
Mon 07:34:09 AM 59.6420 29.1280 273° West 443 510 36,000  Level FlightAware ADS-B
Mon 07:34:48 AM 59.6370 28.9750 266° West 438 504 36,000  Level FlightAware ADS-B
Mon 07:35:23 AM 59.6310 28.8340 265° West 441 507 36,000  Level FlightAware ADS-B
Mon 07:35:58 AM 59.6330 28.6920 272° West 449 517 36,000  Level FlightAware ADS-B
Mon 07:36:37 AM 59.6470 28.5380 280° West 458 527 36,000  Level FlightAware ADS-B
Mon 07:37:09 AM 59.6670 28.4020 286° West 460 529 36,000  Level FlightAware ADS-B
Mon 07:37:45 AM 59.6880 28.2580 286° West 460 529 36,000  Level FlightAware ADS-B
Mon 07:38:19 AM 59.7070 28.1270 286° West 461 531 36,000  Level FlightAware ADS-B
Mon 07:38:55 AM 59.7280 27.9750 285° West 460 529 36,000  Level FlightAware ADS-B
Mon 07:39:32 AM 59.7480 27.8330 286° West 459 528 36,000  Level FlightAware ADS-B
Mon 07:40:05 AM 59.7660 27.7020 285° West 460 529 36,000  Level FlightAware ADS-B
Mon 07:40:39 AM 59.7870 27.5520 286° West 462 532 36,000  Level FlightAware ADS-B
Mon 07:41:17 AM 59.8070 27.4020 285° West 461 531 36,000  Level FlightAware ADS-B
Mon 07:41:49 AM 59.8250 27.2710 285° West 460 529 36,000  Level FlightAware ADS-B
Mon 07:42:27 AM 59.8460 27.1150 285° West 460 529 36,000  Level FlightAware ADS-B
Mon 07:42:59 AM 59.8640 26.9810 285° West 459 528 36,000  Level FlightAware ADS-B
Mon 07:43:35 AM 59.8820 26.8400 284° West 459 528 36,000  Level FlightAware ADS-B
Mon 07:44:05 AM 59.8990 26.7150 285° West 459 528 36,000  Level FlightAware ADS-B
Mon 07:44:45 AM 59.9200 26.5460 284° West 461 531 36,000  Level FlightAware ADS-B
Mon 07:45:19 AM 59.9400 26.4130 287° West 464 534 36,000  Level FlightAware ADS-B
Mon 07:45:55 AM 59.9700 26.2690 293° West 469 540 36,000  Level FlightAware ADS-B
Mon 07:46:31 AM 60.0070 26.1340 299° West 473 544 36,000  Level FlightAware ADS-B
Mon 07:47:03 AM 60.0480 26.0180 305° West 477 549 36,000  Level FlightAware ADS-B
Mon 07:47:37 AM 60.0850 25.8920 301° West 470 541 36,000  Level FlightAware ADS-B
Mon 07:48:15 AM 60.1190 25.7420 295° West 471 542 36,000  Level FlightAware ADS-B
Mon 07:48:51 AM 60.1540 25.5950 296° West 472 543 36,000  Level FlightAware ADS-B
Mon 07:49:21 AM 60.1800 25.4810 295° West 473 544 36,000  Level FlightAware ADS-B
Mon 07:49:59 AM 60.2150 25.3310 295° West 473 544 36,000  Level FlightAware ADS-B
Mon 07:50:31 AM 60.2450 25.2010 295° West 473 544 36,000  Level FlightAware ADS-B
Mon 07:51:09 AM 60.2800 25.0470 295° West 473 544 36,000  Level FlightAware ADS-B
Mon 07:51:45 AM 60.3120 24.9070 295° West 472 543 36,000  Level FlightAware ADS-B
Mon 07:52:21 AM 60.3450 24.7620 295° West 472 543 36,000  Level FlightAware ADS-B
Mon 07:52:53 AM 60.3740 24.6300 294° West 472 543 36,000  Level FlightAware ADS-B
Mon 07:53:29 AM 60.4050 24.4920 295° West 473 544 36,000  Level FlightAware ADS-B
Mon 07:54:03 AM 60.4360 24.3530 294° West 474 545 36,000  Level FlightAware ADS-B
Mon 07:54:37 AM 60.4670 24.2120 294° West 475 547 36,000  Level FlightAware ADS-B
Mon 07:55:15 AM 60.5040 24.0750 299° West 476 548 36,000  Level FlightAware ADS-B
Mon 07:55:51 AM 60.5450 23.9230 299° West 476 548 36,000  Level FlightAware ADS-B
Mon 07:56:27 AM 60.5820 23.7830 298° West 476 548 36,000  Level FlightAware ADS-B
Mon 07:56:59 AM 60.6160 23.6530 298° West 475 547 36,000  Level FlightAware ADS-B
Mon 07:57:35 AM 60.6510 23.5160 298° West 475 547 36,000  Level FlightAware ADS-B
Mon 07:58:09 AM 60.6870 23.3760 298° West 475 547 36,000  Level FlightAware ADS-B
Mon 07:58:43 AM 60.7210 23.2440 298° West 475 547 36,000  Level FlightAware ADS-B
Mon 07:59:21 AM 60.7600 23.0930 298° West 475 547 36,000  Level FlightAware ADS-B
Mon 07:59:53 AM 60.7930 22.9630 298° West 474 545 36,000  Level FlightAware ADS-B
Mon 08:00:25 AM 60.8240 22.8390 297° West 474 545 36,000  Level FlightAware ADS-B
Mon 08:01:05 AM 60.8640 22.6800 297° West 471 542 36,000  Level FlightAware ADS-B
Mon 08:01:39 AM 60.8960 22.5500 297° West 471 542 36,000  Level FlightAware ADS-B
Mon 08:02:15 AM 60.9330 22.4010 297° West 471 542 36,000  Level FlightAware ADS-B
Mon 08:02:58 AM 60.9790 22.2320 299° West 473 544 36,000  Level FlightAware ADS-B
Mon 08:03:30 AM 61.0180 22.1080 303° West 474 545 36,000  Level FlightAware ADS-B
Mon 08:04:07 AM 61.0600 21.9730 303° West 476 548 36,000  Level FlightAware ADS-B
Mon 08:04:44 AM 61.1020 21.8340 302° West 476 548 36,000  Level FlightAware ADS-B
Mon 08:05:16 AM 61.1410 21.7030 302° West 477 549 36,000  Level FlightAware ADS-B
Mon 08:05:49 AM 61.1780 21.5810 302° West 478 550 36,000  Level FlightAware ADS-B
Mon 08:06:28 AM 61.2250 21.4240 302° West 478 550 36,000  Level FlightAware ADS-B
Mon 08:07:04 AM 61.2660 21.2860 302° West 478 550 36,000  Level FlightAware ADS-B
Mon 08:07:33 AM 61.2980 21.1760 301° West 479 551 36,000  Level FlightAware ADS-B
Mon 08:08:12 AM 61.3450 21.0180 302° West 479 551 36,000  Level FlightAware ADS-B
Mon 08:08:48 AM 61.3860 20.8760 301° West 480 552 36,000  Level FlightAware ADS-B
Mon 08:09:21 AM 61.4230 20.7470 301° West 480 552 36,000  Level FlightAware ADS-B
Mon 08:09:56 AM 61.4620 20.6110 301° West 480 552 36,000  Level FlightAware ADS-B
Mon 08:10:33 AM 61.5050 20.4630 301° West 480 552 36,000  Level FlightAware ADS-B
Mon 08:11:00 AM 61.5320 20.3670 301° West 481 554 36,000  Level FlightAware ADS-B
Mon 08:11:40 AM 61.5790 20.1990 301° West 480 552 36,000  Level FlightAware ADS-B
Mon 08:12:18 AM 61.6220 20.0480 301° West 480 552 36,000  Level FlightAware ADS-B
Mon 08:12:53 AM 61.6630 19.9010 300° West 479 551 36,000  Level FlightAware ADS-B
Mon 08:13:25 AM 61.6980 19.7750 300° West 479 551 36,000  Level FlightAware ADS-B
Mon 08:13:56 AM 61.7320 19.6490 300° West 479 551 36,000  Level FlightAware ADS-B
Mon 08:14:37 AM 61.7750 19.4950 301° West 480 552 36,000  Level FlightAware ADS-B
Mon 08:15:13 AM 61.8150 19.3320 298° West 479 551 36,000  Level FlightAware ADS-B
Mon 08:15:47 AM 61.8470 19.1960 297° West 480 552 36,000  Level FlightAware ADS-B
Mon 08:16:21 AM 61.8830 19.0480 297° West 481 554 36,000  Level FlightAware ADS-B
Mon 08:16:55 AM 61.9170 18.9080 297° West 482 555 36,000  Level FlightAware ADS-B
Mon 08:17:33 AM 61.9560 18.7470 297° West 481 554 36,000  Level FlightAware ADS-B
Mon 08:18:05 AM 61.9900 18.6150 299° West 482 555 36,000  Level FlightAware ADS-B
Mon 08:18:39 AM 62.0420 18.5010 314° West 485 558 36,000  Level FlightAware ADS-B
Mon 08:19:19 AM 62.1060 18.3650 315° West 485 558 36,000  Level FlightAware ADS-B
Mon 08:19:51 AM 62.1580 18.2560 316° Northwest 485 558 36,000  Level FlightAware ADS-B
Mon 08:20:28 AM 62.2160 18.1330 315° West 485 558 36,000  Level FlightAware ADS-B
Mon 08:21:03 AM 62.2720 18.0130 315° West 485 558 36,000  Level FlightAware ADS-B
Mon 08:21:37 AM 62.3260 17.8980 315° West 484 557 36,000  Level FlightAware ADS-B
Mon 08:22:11 AM 62.3780 17.7850 315° West 483 556 36,000  Level FlightAware ADS-B
Mon 08:22:47 AM 62.4370 17.6570 315° West 484 557 36,000  Level FlightAware ADS-B
Mon 08:23:23 AM 62.4920 17.5370 315° West 485 558 36,000  Level FlightAware ADS-B
Mon 08:23:55 AM 62.5420 17.4260 314° West 485 558 36,000  Level FlightAware ADS-B
Mon 08:24:34 AM 62.6010 17.2950 314° West 484 557 36,000  Level FlightAware ADS-B
Mon 08:25:05 AM 62.6520 17.1830 315° West 483 556 36,000  Level FlightAware ADS-B
Mon 08:25:41 AM 62.7070 17.0600 314° West 482 555 36,000  Level FlightAware ADS-B
Mon 08:26:15 AM 62.7600 16.9400 314° West 483 556 36,000  Level FlightAware ADS-B
Mon 08:26:51 AM 62.8160 16.8130 314° West 481 554 36,000  Level FlightAware ADS-B
Mon 08:27:23 AM 62.8650 16.7020 314° West 481 554 36,000  Level FlightAware ADS-B
Mon 08:27:59 AM 62.9200 16.5770 314° West 480 552 36,000  Level FlightAware ADS-B
Mon 08:28:33 AM 62.9730 16.4560 314° West 480 552 36,000  Level FlightAware ADS-B
Mon 08:29:11 AM 63.0300 16.3240 314° West 482 555 36,000  Level FlightAware ADS-B
Mon 08:29:47 AM 63.0850 16.1960 314° West 483 556 36,000  Level FlightAware ADS-B
Mon 08:30:23 AM 63.1410 16.0660 314° West 483 556 36,000  Level FlightAware ADS-B
Mon 08:30:59 AM 63.1950 15.9370 313° West 483 556 36,000  Level FlightAware ADS-B
Mon 08:31:31 AM 63.2450 15.8190 313° West 482 555 36,000  Level FlightAware ADS-B
Mon 08:32:07 AM 63.2990 15.6930 314° West 482 555 36,000  Level FlightAware ADS-B
Mon 08:32:41 AM 63.3500 15.5690 313° West 483 556 36,000  Level FlightAware ADS-B
Mon 08:33:17 AM 63.4050 15.4370 313° West 484 557 36,000  Level FlightAware ADS-B
Mon 08:33:53 AM 63.4600 15.3050 313° West 484 557 36,000  Level FlightAware ADS-B
Mon 08:34:27 AM 63.5120 15.1790 313° West 484 557 36,000  Level FlightAware ADS-B
Mon 08:34:59 AM 63.5600 15.0610 312° West 483 556 36,000  Level FlightAware ADS-B
Mon 08:35:37 AM 63.6160 14.9220 312° West 484 557 36,000  Level FlightAware ADS-B
Mon 08:36:13 AM 63.6710 14.7860 312° West 483 556 36,000  Level FlightAware ADS-B
Mon 08:36:43 AM 63.7150 14.6770 312° West 484 557 36,000  Level FlightAware ADS-B
Mon 08:37:21 AM 63.7720 14.5320 312° West 482 555 36,000  Level FlightAware ADS-B
Mon 08:37:57 AM 63.8230 14.4030 312° West 482 555 36,000  Level FlightAware ADS-B
Mon 08:38:33 AM 63.8780 14.2650 312° West 481 554 36,000  Level FlightAware ADS-B
Mon 08:39:09 AM 63.9310 14.1290 312° West 480 552 36,000  Level FlightAware ADS-B
Mon 08:39:41 AM 63.9790 14.0050 311° West 480 552 36,000  Level FlightAware ADS-B
Mon 08:40:17 AM 64.0320 13.8700 312° West 480 552 36,000  Level FlightAware ADS-B
Mon 08:40:53 AM 64.0840 13.7350 311° West 479 551 36,000  Level FlightAware ADS-B
Mon 08:41:25 AM 64.1310 13.6110 311° West 481 554 36,000  Level FlightAware ADS-B
Mon 08:42:01 AM 64.1830 13.4730 311° West 481 554 36,000  Level FlightAware ADS-B
Mon 08:42:37 AM 64.2360 13.3340 311° West 482 555 36,000  Level FlightAware ADS-B
Mon 08:43:13 AM 64.2870 13.1960 310° West 483 556 36,000  Level FlightAware ADS-B
Mon 08:43:45 AM 64.3330 13.0730 311° West 483 556 36,000  Level FlightAware ADS-B
Mon 08:44:19 AM 64.3830 12.9400 311° West 483 556 36,000  Level FlightAware ADS-B
Mon 08:44:57 AM 64.4370 12.7930 310° West 482 555 36,000  Level FlightAware ADS-B
Mon 08:45:29 AM 64.4840 12.6630 310° West 481 554 36,000  Level FlightAware ADS-B
Mon 08:46:05 AM 64.5340 12.5260 310° West 482 555 36,000  Level FlightAware ADS-B
Mon 08:46:41 AM 64.5860 12.3820 310° West 482 555 36,000  Level FlightAware ADS-B
Mon 08:47:17 AM 64.6380 12.2380 310° West 482 555 36,000  Level FlightAware ADS-B
Mon 08:47:53 AM 64.6900 12.0930 310° West 482 555 36,000  Level FlightAware ADS-B
Mon 08:48:23 AM 64.7310 11.9750 309° West 481 554 36,000  Level FlightAware ADS-B
Mon 08:49:01 AM 64.7850 11.8240 310° West 480 552 36,000  Level FlightAware ADS-B
Mon 08:49:39 AM 64.8390 11.6700 310° West 479 551 36,000  Level FlightAware ADS-B
Mon 08:50:11 AM 64.8820 11.5440 309° West 477 549 36,000  Level FlightAware ADS-B
Mon 08:50:47 AM 64.9330 11.3990 310° West 477 549 36,000  Level FlightAware ADS-B
Mon 08:51:23 AM 64.9830 11.2530 309° West 476 548 36,000  Level FlightAware ADS-B
Mon 08:51:55 AM 65.0270 11.1240 309° West 475 547 36,000  Level FlightAware ADS-B
Mon 08:52:33 AM 65.0790 10.9710 309° West 477 549 36,000  Level FlightAware ADS-B
Mon 08:53:05 AM 65.1220 10.8410 308° West 476 548 36,000  Level FlightAware ADS-B
Mon 08:53:43 AM 65.1740 10.6860 309° West 475 547 36,000  Level FlightAware ADS-B
Mon 08:54:19 AM 65.2230 10.5390 309° West 475 547 36,000  Level FlightAware ADS-B
Mon 08:54:51 AM 65.2670 10.4070 309° West 476 548 36,000  Level FlightAware ADS-B
Mon 08:55:29 AM 65.3180 10.2510 308° West 477 549 36,000  Level FlightAware ADS-B
Mon 08:56:11 AM 65.3760 10.0750 308° West 476 548 36,000  Level FlightAware ADS-B
Mon 08:56:43 AM 65.4190 9.9420 308° West 475 547 36,000  Level FlightAware ADS-B
Mon 08:57:19 AM 65.4670 9.7900 307° West 475 547 36,000  Level FlightAware ADS-B
Mon 08:57:55 AM 65.5140 9.6430 308° West 476 548 36,000  Level FlightAware ADS-B
Mon 08:58:29 AM 65.5600 9.4980 308° West 476 548 36,000  Level FlightAware ADS-B
Mon 08:59:03 AM 65.6040 9.3600 308° West 477 549 36,000  Level FlightAware ADS-B
Mon 08:59:37 AM 65.6510 9.2090 307° West 477 549 36,000  Level FlightAware ADS-B
Mon 09:00:15 AM 65.7010 9.0490 307° West 477 549 36,000  Level FlightAware ADS-B
Mon 09:00:47 AM 65.7440 8.9110 307° West 477 549 36,000  Level FlightAware ADS-B
Mon 09:01:43 AM 65.8090 8.6960 306° West 477 549 36,000  Level FlightAware ADS-B
Mon 09:02:19 AM 65.8480 8.5630 306° West 477 549 36,000  Level FlightAware ADS-B
Mon 09:02:55 AM 65.8880 8.4290 306° West 477 549 36,000  Level FlightAware ADS-B
Mon 09:03:32 AM 65.9290 8.2920 306° West 477 549 36,000  Level FlightAware ADS-B
Mon 09:04:08 AM 65.9690 8.1580 306° West 477 549 36,000  Level FlightAware ADS-B
Mon 09:04:44 AM 66.0080 8.0230 305° West 477 549 36,000  Level FlightAware ADS-B
Mon 09:05:20 AM 66.0480 7.8890 306° West 477 549 36,000  Level FlightAware ADS-B
Mon 09:05:56 AM 66.0880 7.7540 306° West 477 549 36,000  Level FlightAware ADS-B
Mon 09:06:32 AM 66.1270 7.6190 306° West 477 549 36,000  Level FlightAware ADS-B
Mon 09:07:09 AM 66.1680 7.4800 306° West 477 549 36,000  Level FlightAware ADS-B
Mon 09:07:45 AM 66.2080 7.3450 306° West 477 549 36,000  Level FlightAware ADS-B
Mon 09:08:21 AM 66.2470 7.2090 305° West 477 549 36,000  Level FlightAware ADS-B
Mon 09:08:58 AM 66.2880 7.0700 306° West 477 549 36,000  Level FlightAware ADS-B
Mon 09:09:34 AM 66.3280 6.9340 306° West 477 549 36,000  Level FlightAware ADS-B
Mon 09:10:10 AM 66.3670 6.7980 306° West 477 549 36,000  Level FlightAware ADS-B
Mon 09:10:46 AM 66.4070 6.6610 306° West 477 549 36,000 Level FlightAware ADS-B
Mon 09:13:00 AM 66.4445 6.0352 279° West  Level Estimated
Mon 09:14:00 AM 66.4605 5.7544 278° West  Level Estimated
Mon 09:15:00 AM 66.4760 5.4732 278° West  Level Estimated
Mon 09:16:00 AM 66.4909 5.1917 278° West  Level Estimated
Mon 09:17:00 AM 66.5054 4.9098 277° West  Level Estimated
Mon 09:18:00 AM 66.5193 4.6276 277° West  Level Estimated
Mon 09:19:00 AM 66.5328 4.3452 277° West  Level Estimated
Mon 09:20:00 AM 66.5457 4.0624 277° West  Level Estimated
Mon 09:21:00 AM 66.5582 3.7793 276° West  Level Estimated
Mon 09:22:00 AM 66.5701 3.4960 276° West  Level Estimated
Mon 09:23:00 AM 66.5815 3.2123 276° West  Level Estimated
Mon 09:24:00 AM 66.5924 2.9285 276° West  Level Estimated
Mon 09:25:00 AM 66.6027 2.6444 275° West  Level Estimated
Mon 09:26:00 AM 66.6126 2.3600 275° West  Level Estimated
Mon 09:27:00 AM 66.6219 2.0755 275° West  Level Estimated
Mon 09:28:00 AM 66.6308 1.7907 275° West  Level Estimated
Mon 09:29:00 AM 66.6391 1.5057 274° West  Level Estimated
Mon 09:30:00 AM 66.6469 1.2206 274° West  Level Estimated
Mon 09:31:00 AM 66.6542 0.9352 274° West  Level Estimated
Mon 09:32:00 AM 66.6610 0.6497 274° West  Level Estimated
Mon 09:33:00 AM 66.6672 0.3641 273° West  Level Estimated
Mon 09:34:00 AM 66.6729 0.0783 273° West  Level Estimated
Mon 09:35:00 AM 66.6781 -0.2076 273° West  Level Estimated
Mon 09:36:00 AM 66.6828 -0.4936 273° West  Level Estimated
Mon 09:37:00 AM 66.6870 -0.7797 272° West  Level Estimated
Mon 09:38:00 AM 66.6907 -1.0660 272° West  Level Estimated
Mon 09:39:00 AM 66.6938 -1.3522 272° West  Level Estimated
Mon 09:40:00 AM 66.6964 -1.6386 271° West  Level Estimated
Mon 09:41:00 AM 66.6985 -1.9250 271° West  Level Estimated
Mon 09:42:00 AM 66.7001 -2.2115 271° West  Level Estimated
Mon 09:43:00 AM 66.7012 -2.4980 271° West  Level Estimated
Mon 09:44:00 AM 66.7017 -2.7845 270° West  Level Estimated
Mon 09:45:00 AM 66.7017 -3.0710 270° West  Level Estimated
Mon 09:46:00 AM 66.7012 -3.3575 270° West  Level Estimated
Mon 09:47:00 AM 66.7002 -3.6440 270° West  Level Estimated
Mon 09:48:00 AM 66.6986 -3.9304 269° West  Level Estimated
Mon 09:49:00 AM 66.6966 -4.2169 269° West  Level Estimated
Mon 09:50:00 AM 66.6940 -4.5032 269° West  Level Estimated
Mon 09:51:00 AM 66.6909 -4.7895 269° West  Level Estimated
Mon 09:52:00 AM 66.6872 -5.0758 268° West  Level Estimated
Mon 09:53:00 AM 66.6831 -5.3619 268° West  Level Estimated
Mon 09:54:00 AM 66.6784 -5.6479 268° West  Level Estimated
Mon 09:55:00 AM 66.6732 -5.9338 268° West  Level Estimated
Mon 09:56:00 AM 66.6675 -6.2196 267° West  Level Estimated
Mon 09:57:00 AM 66.6613 -6.5053 267° West  Level Estimated
Mon 09:58:00 AM 66.6546 -6.7908 267° West  Level Estimated
Mon 09:59:00 AM 66.6473 -7.0761 266° West  Level Estimated
Mon 10:00:00 AM 66.6395 -7.3613 266° West  Level Estimated
Mon 10:01:00 AM 66.6313 -7.6463 266° West  Level Estimated
Mon 10:02:00 AM 66.6225 -7.9310 266° West  Level Estimated
Mon 10:03:00 AM 66.6131 -8.2156 265° West  Level Estimated
Mon 10:04:00 AM 66.6033 -8.5000 265° West  Level Estimated
Mon 10:05:00 AM 66.5930 -8.7841 265° West  Level Estimated
Mon 10:06:00 AM 66.5821 -9.0680 265° West  Level Estimated
Mon 10:07:00 AM 66.5707 -9.3516 264° West  Level Estimated
Mon 10:08:00 AM 66.5588 -9.6350 264° West  Level Estimated
Mon 10:09:00 AM 66.5464 -9.9181 264° West  Level Estimated
Mon 10:10:00 AM 66.5335 -10.2009 264° West  Level Estimated
Mon 10:11:00 AM 66.5201 -10.4834 263° West  Level Estimated
Mon 10:12:00 AM 66.5062 -10.7656 263° West  Level Estimated
Mon 10:13:00 AM 66.4918 -11.0474 263° West  Level Estimated
Mon 10:14:00 AM 66.4768 -11.3290 263° West  Level Estimated
Mon 10:15:00 AM 66.4614 -11.6102 262° West  Level Estimated
Mon 10:16:00 AM 66.4454 -11.8910 262° West  Level Estimated
Mon 10:17:00 AM 66.4290 -12.1715 262° West  Level Estimated
Mon 10:18:00 AM 66.4120 -12.4516 262° West  Level Estimated
Mon 10:19:00 AM 66.3946 -12.7313 261° West  Level Estimated
Mon 10:20:00 AM 66.3766 -13.0106 261° West  Level Estimated
Mon 10:21:00 AM 66.3581 -13.2895 261° West  Level Estimated
Mon 10:22:00 AM 66.3392 -13.5680 260° West  Level Estimated
Mon 10:23:00 AM 66.3197 -13.8461 260° West  Level Estimated
Mon 10:24:00 AM 66.2998 -14.1237 260° West  Level Estimated
Mon 10:25:00 AM 66.2794 -14.4009 260° West  Level Estimated
Mon 10:26:00 AM 66.2584 -14.6777 259° West  Level Estimated
Mon 10:27:00 AM 66.2370 -14.9539 259° West  Level Estimated
Mon 10:28:00 AM 66.2151 -15.2297 259° West  Level Estimated
Mon 10:29:00 AM 66.1927 -15.5050 259° West  Level Estimated
Mon 10:30:00 AM 66.1698 -15.7799 258° West  Level Estimated
Mon 10:31:00 AM 66.1464 -16.0542 258° West  Level Estimated
Mon 10:32:00 AM 66.1225 -16.3280 258° West  Level Estimated
Mon 10:33:00 AM 66.0982 -16.6013 258° West  Level Estimated
Mon 10:34:00 AM 66.0733 -16.8740 257° West  Level Estimated
Mon 10:35:00 AM 66.0480 -17.1463 257° West  Level Estimated
Mon 10:36:00 AM 66.0222 -17.4179 257° West  Level Estimated
Mon 10:37:00 AM 65.9960 -17.6891 257° West  Level Estimated
Mon 10:38:00 AM 65.9692 -17.9596 256° West  Level Estimated
Mon 10:39:00 AM 65.9420 -18.2296 256° West  Level Estimated
Mon 10:40:00 AM 65.9143 -18.4990 256° West  Level Estimated
Mon 10:41:00 AM 65.8862 -18.7678 256° West  Level Estimated
Mon 10:42:00 AM 65.8575 -19.0361 255° West  Level Estimated
Mon 10:43:00 AM 65.8284 -19.3037 255° West  Level Estimated
Mon 10:44:00 AM 65.7989 -19.5707 255° West  Level Estimated
Mon 10:45:00 AM 65.7689 -19.8371 255° West  Level Estimated
Mon 10:46:00 AM 65.7384 -20.1029 255° West  Level Estimated
Mon 10:47:00 AM 65.7074 -20.3680 254° West  Level Estimated
Mon 10:48:00 AM 65.6760 -20.6325 254° West  Level Estimated
Mon 10:49:00 AM 65.6441 -20.8964 254° West  Level Estimated
Mon 10:50:00 AM 65.6118 -21.1596 254° West  Level Estimated
Mon 10:51:00 AM 65.5790 -21.4221 253° West  Level Estimated
Mon 10:52:00 AM 65.5458 -21.6840 253° West  Level Estimated
Mon 10:53:00 AM 65.5121 -21.9452 253° West  Level Estimated
Mon 10:54:00 AM 65.4780 -22.2058 253° West  Level Estimated
Mon 10:55:00 AM 65.4434 -22.4656 252° West  Level Estimated
Mon 10:56:00 AM 65.4084 -22.7248 252° West  Level Estimated
Mon 10:57:00 AM 65.3729 -22.9832 252° West  Level Estimated
Mon 10:58:00 AM 65.3370 -23.2410 252° West  Level Estimated
Mon 10:59:00 AM 65.3007 -23.4980 251° West  Level Estimated
Mon 11:00:00 AM 65.2639 -23.7544 251° West  Level Estimated
Mon 11:01:00 AM 65.2267 -24.0100 251° West  Level Estimated
Mon 11:02:00 AM 65.1891 -24.2649 251° West  Level Estimated
Mon 11:03:00 AM 65.1510 -24.5191 250° West  Level Estimated
Mon 11:04:00 AM 65.1125 -24.7725 250° West  Level Estimated
Mon 11:05:00 AM 65.0736 -25.0252 250° West  Level Estimated
Mon 11:06:00 AM 65.0342 -25.2772 250° West  Level Estimated
Mon 11:07:00 AM 64.9945 -25.5284 250° West  Level Estimated
Mon 11:08:00 AM 64.9543 -25.7789 249° West  Level Estimated
Mon 11:09:00 AM 64.9137 -26.0286 249° West  Level Estimated
Mon 11:10:00 AM 64.8726 -26.2775 249° West  Level Estimated
Mon 11:11:00 AM 64.8312 -26.5257 249° West  Level Estimated
Mon 11:12:00 AM 64.7893 -26.7732 248° West  Level Estimated
Mon 11:13:00 AM 64.7470 -27.0198 248° West  Level Estimated
Mon 11:14:00 AM 64.7044 -27.2657 248° West  Level Estimated
Mon 11:15:00 AM 64.6613 -27.5108 248° West  Level Estimated
Mon 11:16:00 AM 64.6178 -27.7551 248° West  Level Estimated
Mon 11:17:00 AM 64.5739 -27.9986 247° West  Level Estimated
Mon 11:18:00 AM 64.5296 -28.2414 247° West  Level Estimated
Mon 11:19:00 AM 64.4849 -28.4834 247° West  Level Estimated
Mon 11:20:00 AM 64.4398 -28.7245 247° West  Level Estimated
Mon 11:21:00 AM 64.3944 -28.9649 246° West  Level Estimated
Mon 11:22:00 AM 64.3485 -29.2045 246° West  Level Estimated
Mon 11:23:00 AM 64.3022 -29.4432 246° West  Level Estimated
Mon 11:24:00 AM 64.2520 -29.6992 246° West  Level Estimated
Mon 11:25:00 AM 64.2014 -29.9543 246° West  Level Estimated
Mon 11:26:00 AM 64.1503 -30.2084 245° Southwest  Level Estimated
Mon 11:27:00 AM 64.0988 -30.4616 245° Southwest  Level Estimated
Mon 11:28:00 AM 64.0468 -30.7139 245° Southwest  Level Estimated
Mon 11:29:00 AM 63.9944 -30.9652 245° Southwest  Level Estimated
Mon 11:30:00 AM 63.9415 -31.2156 244° Southwest  Level Estimated
Mon 11:31:00 AM 63.8883 -31.4650 244° Southwest  Level Estimated
Mon 11:32:00 AM 63.8346 -31.7135 244° Southwest  Level Estimated
Mon 11:33:00 AM 63.7804 -31.9610 244° Southwest  Level Estimated
Mon 11:34:00 AM 63.7259 -32.2076 244° Southwest  Level Estimated
Mon 11:35:00 AM 63.6710 -32.4532 243° Southwest  Level Estimated
Mon 11:36:00 AM 63.6156 -32.6978 243° Southwest  Level Estimated
Mon 11:37:00 AM 63.5598 -32.9416 243° Southwest  Level Estimated
Mon 11:38:00 AM 63.5036 -33.1843 243° Southwest  Level Estimated
Mon 11:39:00 AM 63.4469 -33.4261 242° Southwest  Level Estimated
Mon 11:40:00 AM 63.3899 -33.6670 242° Southwest  Level Estimated
Mon 11:41:00 AM 63.3325 -33.9068 242° Southwest  Level Estimated
Mon 11:42:00 AM 63.2747 -34.1457 242° Southwest  Level Estimated
Mon 11:43:00 AM 63.2164 -34.3837 242° Southwest  Level Estimated
Mon 11:44:00 AM 63.1578 -34.6207 241° Southwest  Level Estimated
Mon 11:45:00 AM 63.0988 -34.8568 241° Southwest  Level Estimated
Mon 11:46:00 AM 63.0394 -35.0918 241° Southwest  Level Estimated
Mon 11:47:00 AM 62.9796 -35.3260 241° Southwest  Level Estimated
Mon 11:48:00 AM 62.9194 -35.5591 241° Southwest  Level Estimated
Mon 11:49:00 AM 62.8589 -35.7913 240° Southwest  Level Estimated
Mon 11:50:00 AM 62.7979 -36.0226 240° Southwest  Level Estimated
Mon 11:51:00 AM 62.7366 -36.2529 240° Southwest  Level Estimated
Mon 11:52:00 AM 62.6749 -36.4822 240° Southwest  Level Estimated
Mon 11:53:00 AM 62.6128 -36.7106 239° Southwest  Level Estimated
Mon 11:54:00 AM 62.5504 -36.9380 239° Southwest  Level Estimated
Mon 11:55:00 AM 62.4876 -37.1645 239° Southwest  Level Estimated
Mon 11:56:00 AM 62.4244 -37.3900 239° Southwest  Level Estimated
Mon 11:57:00 AM 62.3609 -37.6145 239° Southwest  Level Estimated
Mon 11:58:00 AM 62.2970 -37.8382 238° Southwest  Level Estimated
Mon 11:59:00 AM 62.2327 -38.0608 238° Southwest  Level Estimated
Mon 12:00:00 PM 62.1681 -38.2825 238° Southwest  Level Estimated
Mon 12:01:00 PM 62.1032 -38.5033 238° Southwest  Level Estimated
Mon 12:02:00 PM 62.0379 -38.7231 238° Southwest  Level Estimated
Mon 12:03:00 PM 61.9722 -38.9420 238° Southwest  Level Estimated
Mon 12:04:00 PM 61.9062 -39.1599 237° Southwest  Level Estimated
Mon 12:05:00 PM 61.8399 -39.3769 237° Southwest  Level Estimated
Mon 12:06:00 PM 61.7732 -39.5929 237° Southwest  Level Estimated
Mon 12:07:00 PM 61.7062 -39.8080 237° Southwest  Level Estimated
Mon 12:08:00 PM 61.6388 -40.0222 237° Southwest  Level Estimated
Mon 12:09:00 PM 61.5711 -40.2354 236° Southwest  Level Estimated
Mon 12:10:00 PM 61.5031 -40.4478 236° Southwest  Level Estimated
Mon 12:11:00 PM 61.4347 -40.6591 236° Southwest  Level Estimated
Mon 12:12:00 PM 61.3661 -40.8696 236° Southwest  Level Estimated
Mon 12:13:00 PM 61.2971 -41.0791 236° Southwest  Level Estimated
Mon 12:14:00 PM 61.2277 -41.2877 235° Southwest  Level Estimated
Mon 12:15:00 PM 61.1581 -41.4954 235° Southwest  Level Estimated
Mon 12:16:00 PM 61.0881 -41.7022 235° Southwest  Level Estimated
Mon 12:17:00 PM 61.0179 -41.9080 235° Southwest  Level Estimated
Mon 12:17:12 PM 62.4450 -48.7690 235° Southwest 478 550 37,000  Level FlightAware ADS-B
Mon 12:17:52 PM 62.3960 -48.9090 233° Southwest 480 552 37,000  Level FlightAware ADS-B
Mon 12:18:00 PM 60.9473 -42.1130 235° Southwest  Level Estimated
Mon 12:18:30 PM 62.3390 -49.0680 232° Southwest 480 552 37,000  Level FlightAware ADS-B
Mon 12:19:16 PM 62.2780 -49.2390 233° Southwest 479 551 37,000  Level FlightAware ADS-B
Mon 12:19:54 PM 62.2270 -49.3820 233° Southwest 478 550 37,000  Level FlightAware ADS-B
Mon 12:20:43 PM 62.1590 -49.5670 232° Southwest 477 549 37,000  Level FlightAware ADS-B
Mon 12:21:21 PM 62.1140 -49.6870 231° Southwest 476 548 37,000  Level FlightAware ADS-B
Mon 12:21:59 PM 62.0700 -49.8060 232° Southwest 476 548 37,000  Level FlightAware ADS-B
Mon 12:22:35 PM 62.0270 -49.9170 230° Southwest 476 548 37,000  Level FlightAware ADS-B
Mon 12:23:08 PM 61.9690 -50.0850 234° Southwest 477 549 37,000  Level FlightAware ADS-B
Mon 12:23:51 PM 61.9120 -50.2720 237° Southwest 476 548 37,000  Level FlightAware ADS-B
Mon 12:24:22 PM 61.8750 -50.3870 236° Southwest 475 547 37,000  Level FlightAware ADS-B
Mon 12:24:48 PM 61.8420 -50.4880 235° Southwest 475 547 37,000  Level FlightAware ADS-B
Mon 12:25:45 PM 61.7780 -50.6840 235° Southwest 476 548 37,000  Level FlightAware ADS-B
Mon 12:26:22 PM 61.7380 -50.8040 235° Southwest 476 548 37,000  Level FlightAware ADS-B
Mon 12:27:07 PM 61.6740 -50.9940 235° Southwest 478 550 37,000  Level FlightAware ADS-B
Mon 12:27:43 PM 61.6340 -51.1100 234° Southwest 478 550 37,000  Level FlightAware ADS-B
Mon 12:28:19 PM 61.5940 -51.2250 234° Southwest 478 550 37,000  Level FlightAware ADS-B
Mon 12:28:56 PM 61.5530 -51.3430 234° Southwest 478 550 37,000  Level FlightAware ADS-B
Mon 12:29:32 PM 61.4860 -51.5510 236° Southwest 482 555 37,000  Level FlightAware ADS-B
Mon 12:30:10 PM 61.4440 -51.6730 234° Southwest 482 555 37,000  Level FlightAware ADS-B
Mon 12:30:44 PM 61.4060 -51.7820 234° Southwest 482 555 37,000  Level FlightAware ADS-B
Mon 12:31:18 PM 61.3680 -51.8910 234° Southwest 482 555 37,000  Level FlightAware ADS-B
Mon 12:31:54 PM 61.3280 -52.0060 234° Southwest 482 555 37,000  Level FlightAware ADS-B
Mon 12:32:30 PM 61.2880 -52.1210 234° Southwest 482 555 37,000  Level FlightAware ADS-B
Mon 12:33:07 PM 61.2470 -52.2390 234° Southwest 482 555 37,000  Level FlightAware ADS-B
Mon 12:33:44 PM 61.2050 -52.3570 234° Southwest 482 555 37,000  Level FlightAware ADS-B
Mon 12:34:20 PM 61.1650 -52.4720 234° Southwest 482 555 37,000  Level FlightAware ADS-B
Mon 12:34:56 PM 61.1250 -52.5860 234° Southwest 482 555 37,000  Level FlightAware ADS-B
Mon 12:35:32 PM 61.0850 -52.7000 234° Southwest 482 555 37,000  Level FlightAware ADS-B
Mon 12:36:09 PM 61.0440 -52.8170 234° Southwest 482 555 37,000  Level FlightAware ADS-B
Mon 12:36:45 PM 61.0040 -52.9310 234° Southwest 482 555 37,000  Level FlightAware ADS-B
Mon 12:37:21 PM 60.9630 -53.0450 233° Southwest 482 555 37,000  Level FlightAware ADS-B
Mon 12:37:58 PM 60.9220 -53.1620 234° Southwest 482 555 37,000  Level FlightAware ADS-B
Mon 12:38:34 PM 60.8820 -53.2750 234° Southwest 482 555 37,000  Level FlightAware ADS-B
Mon 12:39:12 PM 60.8400 -53.3950 234° Southwest 482 555 37,000  Level FlightAware ADS-B
Mon 12:41:00 PM 60.7057 -53.7506 232° Southwest  Level FlightAware Approximate
Mon 12:42:00 PM 60.6307 -53.9468 232° Southwest  Level FlightAware Approximate
Mon 12:43:00 PM 60.5555 -54.1421 232° Southwest  Level FlightAware Approximate
Mon 12:44:00 PM 60.4799 -54.3366 232° Southwest  Level FlightAware Approximate
Mon 12:45:00 PM 60.4041 -54.5301 232° Southwest  Level FlightAware Approximate
Mon 12:46:00 PM 60.3279 -54.7227 231° Southwest  Level FlightAware Approximate
Mon 12:47:00 PM 60.2515 -54.9144 231° Southwest  Level FlightAware Approximate
Mon 12:48:00 PM 60.1747 -55.1057 231° Southwest  Level FlightAware Approximate
Mon 12:49:00 PM 60.0975 -55.2961 231° Southwest  Level FlightAware Approximate
Mon 12:50:00 PM 60.0201 -55.4857 231° Southwest  Level FlightAware Approximate
Mon 12:51:00 PM 59.9425 -55.6743 231° Southwest  Level FlightAware Approximate
Mon 12:52:00 PM 59.8645 -55.8620 230° Southwest  Level FlightAware Approximate
Mon 12:53:00 PM 59.7863 -56.0489 230° Southwest  Level FlightAware Approximate
Mon 12:54:00 PM 59.7078 -56.2349 230° Southwest  Level FlightAware Approximate
Mon 12:55:00 PM 59.6291 -56.4200 230° Southwest  Level FlightAware Approximate
Mon 12:56:00 PM 59.5501 -56.6043 230° Southwest  Level FlightAware Approximate
Mon 12:57:00 PM 59.4708 -56.7877 230° Southwest  Level FlightAware Approximate
Mon 12:57:06 PM 59.1667 -57.4500 217° Southwest 490 564 37,000  Level Gander Center
Mon 12:58:00 PM 59.3913 -56.9702 229° Southwest  Level FlightAware Approximate
Mon 12:58:06 PM 59.0833 -57.6500 231° Southwest 490 564 37,000  Level Gander Center
Mon 12:59:00 PM 59.2950 -57.1144 217° Southwest  Level Estimated
Mon 01:00:00 PM 59.1986 -57.2577 217° Southwest  Level Estimated
Mon 01:00:06 PM 58.9000 -58.0333 227° Southwest 490 564 37,000  Level Gander Center
Mon 01:01:06 PM 58.8167 -58.2500 233° Southwest 490 564 37,000  Level Gander Center
Mon 01:02:06 PM 58.7167 -58.4333 224° Southwest 490 564 37,000  Level Gander Center
Mon 01:03:06 PM 58.6167 -58.6000 221° Southwest 490 564 37,000  Level Gander Center
Mon 01:04:06 PM 58.5000 -58.7000 204° Southwest 490 564 37,000  Level Gander Center
Mon 01:05:06 PM 58.3833 -58.8333 211° Southwest 490 564 37,000  Level Gander Center
Mon 01:06:06 PM 58.2667 -58.9667 211° Southwest 480 552 37,000  Level Gander Center
Mon 01:07:06 PM 58.1500 -59.0667 204° Southwest 480 552 37,000  Level Gander Center
Mon 01:08:06 PM 58.0167 -59.2000 208° Southwest 480 552 37,000  Level Gander Center
Mon 01:09:06 PM 57.9000 -59.3333 211° Southwest 480 552 37,000  Level Gander Center
Mon 01:10:06 PM 57.7833 -59.4667 211° Southwest 490 564 37,000  Level Gander Center
Mon 01:11:06 PM 57.6833 -59.5667 208° Southwest 480 552 37,000  Level Gander Center
Mon 01:12:06 PM 57.5667 -59.7000 212° Southwest 490 564 37,000  Level Gander Center
Mon 01:13:06 PM 57.4333 -59.8333 208° Southwest 480 552 37,000  Level Gander Center
Mon 01:14:06 PM 57.3167 -59.9500 208° Southwest 490 564 37,000  Level Gander Center
Mon 01:15:06 PM 57.2000 -60.0833 212° Southwest 480 552 37,000  Level Gander Center
Mon 01:16:06 PM 57.0833 -60.1833 205° Southwest 460 529 37,000  Level Gander Center
Mon 01:17:06 PM 56.9667 -60.3000 209° Southwest 470 541 37,000  Level Gander Center
Mon 01:18:06 PM 56.8500 -60.4333 212° Southwest 480 552 37,000  Level Gander Center
Mon 01:19:06 PM 56.7333 -60.5167 201° Southwest 480 552 37,000  Level Gander Center
Mon 01:20:06 PM 56.6167 -60.6500 212° Southwest 470 541 37,000  Level Gander Center
Mon 01:21:06 PM 56.5000 -60.7667 209° Southwest 470 541 37,000  Level Gander Center
Mon 01:22:06 PM 56.4000 -60.8667 209° Southwest 470 541 37,000  Level Gander Center
Mon 01:23:06 PM 56.2667 -60.9833 206° Southwest 480 552 37,000  Level Gander Center
Mon 01:24:06 PM 56.1667 -61.0667 205° Southwest 470 541 37,000  Level Gander Center
Mon 01:25:06 PM 56.0333 -61.2000 209° Southwest 480 552 37,000  Level Gander Center
Mon 01:26:06 PM 55.9167 -61.3167 209° Southwest 480 552 37,000  Level Gander Center
Mon 01:27:06 PM 55.8000 -61.4333 209° Southwest 480 552 37,000  Level Gander Center
Mon 01:28:06 PM 55.6833 -61.5167 202° Southwest 480 552 37,000  Level Gander Center
Mon 01:29:06 PM 55.5667 -61.6333 209° Southwest 470 541 37,000  Level Gander Center
Mon 01:30:06 PM 55.4500 -61.7500 210° Southwest 470 541 37,000  Level Gander Center
Mon 01:31:06 PM 55.3333 -61.8333 202° Southwest 470 541 37,000  Level Gander Center
Mon 01:32:06 PM 55.2167 -61.9500 210° Southwest 470 541 37,000  Level Gander Center
Mon 01:33:06 PM 55.1167 -62.0333 205° Southwest 470 541 37,000  Level Gander Center
Mon 01:34:06 PM 54.9833 -62.1500 207° Southwest 470 541 37,000  Level Gander Center
Mon 01:35:06 PM 54.8833 -62.2667 214° Southwest 460 529 37,000  Level Gander Center
Mon 01:36:06 PM 54.7500 -62.3500 200° South 470 541 37,000  Level Gander Center
Mon 01:37:06 PM 54.6500 -62.4667 214° Southwest 460 529 37,000  Level Gander Center
Mon 01:38:06 PM 54.5333 -62.5500 203° Southwest 460 529 37,000  Level Gander Center
Mon 01:39:06 PM 54.4000 -62.6667 207° Southwest 460 529 37,000  Level Gander Center
Mon 01:40:06 PM 54.2833 -62.7667 207° Southwest 460 529 37,000  Level Gander Center
Mon 01:41:06 PM 54.1667 -62.8500 203° Southwest 460 529 37,000  Level Gander Center
Mon 01:42:06 PM 54.0667 -62.9333 206° Southwest 460 529 37,000  Level Gander Center
Mon 01:43:06 PM 53.9500 -63.0500 210° Southwest 460 529 37,000  Level Gander Center
Mon 01:45:03 PM 53.7333 -63.2333 207° Southwest 470 541 37,000  Level Moncton Center
Mon 01:46:03 PM 53.6000 -63.3333 204° Southwest 460 529 37,000  Level Moncton Center
Mon 01:47:03 PM 53.4833 -63.4167 203° Southwest 470 541 37,000  Level Moncton Center
Mon 01:48:03 PM 53.3667 -63.5333 211° Southwest 460 529 37,000  Level Moncton Center
Mon 01:50:03 PM 53.1333 -63.7000 203° Southwest 460 529 37,000  Level Moncton Center
Mon 01:51:03 PM 53.0167 -63.7833 203° Southwest 460 529 37,000 400 Level Moncton Center
Mon 01:52:03 PM 52.9167 -63.8667 207° Southwest 460 529 37,800 500 Climbing Moncton Center
Mon 01:53:03 PM 52.7833 -63.9833 208° Southwest 460 529 38,000 100 Climbing Moncton Center
Mon 01:54:03 PM 52.6833 -64.0667 207° Southwest 460 529 38,000  Level Moncton Center
Mon 01:55:03 PM 52.5500 -64.1500 201° Southwest 460 529 38,000  Level Moncton Center
Mon 01:56:03 PM 52.4500 -64.2667 215° Southwest 460 529 38,000  Level Moncton Center
Mon 01:57:03 PM 52.3333 -64.3500 204° Southwest 460 529 38,000  Level Moncton Center
Mon 01:58:03 PM 52.2167 -64.4167 199° South 460 529 38,000  Level Moncton Center
Mon 01:59:03 PM 52.1000 -64.5000 204° Southwest 460 529 38,000  Level Moncton Center
Mon 02:00:03 PM 51.9833 -64.6167 212° Southwest 450 518 38,000  Level Moncton Center
Mon 02:01:03 PM 51.8833 -64.7000 207° Southwest 450 518 38,000  Level Moncton Center
Mon 02:02:03 PM 51.7500 -64.7833 201° Southwest 460 529 38,000  Level Moncton Center
Mon 02:03:03 PM 51.6500 -64.8500 202° Southwest 460 529 38,000  Level Moncton Center
Mon 02:04:03 PM 51.5167 -64.9333 201° Southwest 460 529 38,000  Level Moncton Center
Mon 02:05:03 PM 51.4167 -65.0333 212° Southwest 460 529 38,000  Level Moncton Center
Mon 02:06:03 PM 51.3000 -65.1167 204° Southwest 450 518 38,000  Level Moncton Center
Mon 02:07:03 PM 51.1833 -65.2000 204° Southwest 440 506 38,000  Level Moncton Center
Mon 02:08:03 PM 51.0833 -65.2833 208° Southwest 430 495 38,000  Level Moncton Center
Mon 02:09:03 PM 50.9667 -65.3500 200° South 430 495 38,000  Level Moncton Center
Mon 02:10:03 PM 50.8667 -65.4333 208° Southwest 430 495 38,000  Level Moncton Center
Mon 02:11:03 PM 50.7333 -65.5000 198° South 430 495 38,000  Level Moncton Center
Mon 02:12:03 PM 50.6333 -65.5833 208° Southwest 430 495 38,000  Level Moncton Center
Mon 02:13:03 PM 50.5167 -65.6667 204° Southwest 440 506 38,000  Level Moncton Center
Mon 02:14:03 PM 50.4167 -65.7333 203° Southwest 440 506 38,000  Level Moncton Center
Mon 02:15:03 PM 50.3000 -65.8167 205° Southwest 440 506 38,000  Level Moncton Center
Mon 02:16:03 PM 50.1833 -65.8833 200° South 440 506 38,000  Level Moncton Center
Mon 02:17:03 PM 50.0833 -65.9667 208° Southwest 440 506 38,000  Level Moncton Center
Mon 02:18:03 PM 49.9667 -66.0667 209° Southwest 440 506 38,000  Level Moncton Center
Mon 02:19:03 PM 49.8667 -66.1333 203° Southwest 440 506 38,000  Level Moncton Center
Mon 02:20:03 PM 49.7500 -66.2167 205° Southwest 440 506 38,000  Level Moncton Center
Mon 02:21:03 PM 49.6333 -66.2833 200° South 440 506 38,000  Level Moncton Center
Mon 02:22:03 PM 49.5167 -66.3500 200° South 440 506 38,000  Level Moncton Center
Mon 02:23:03 PM 49.4000 -66.4333 205° Southwest 440 506 38,000  Level Moncton Center
Mon 02:24:03 PM 49.3000 -66.5000 204° Southwest 440 506 38,000  Level Moncton Center
Mon 02:25:03 PM 49.1833 -66.5667 200° South 440 506 38,000  Level Moncton Center
Mon 02:26:03 PM 49.0667 -66.6500 205° Southwest 440 506 38,000  Level Moncton Center
Mon 02:27:03 PM 48.9500 -66.7167 201° Southwest 440 506 38,000  Level Moncton Center
Mon 02:28:03 PM 48.8500 -66.7833 204° Southwest 440 506 38,000  Level Moncton Center
Mon 02:29:03 PM 48.7333 -66.8667 205° Southwest 440 506 38,000  Level Moncton Center
Mon 02:30:03 PM 48.6333 -66.9333 204° Southwest 440 506 38,000  Level Moncton Center
Mon 02:31:03 PM 48.5000 -67.0000 198° South 440 506 38,000  Level Moncton Center
Mon 02:32:03 PM 48.4000 -67.1000 214° Southwest 440 506 38,000 100 Level Moncton Center
Mon 02:33:03 PM 48.3000 -67.1833 209° Southwest 440 506 38,200 500 Climbing Moncton Center
Mon 02:34:03 PM 48.1833 -67.2667 205° Southwest 440 506 39,000 400 Climbing Moncton Center
Mon 02:35:03 PM 48.0833 -67.3500 209° Southwest 440 506 39,000  Level Moncton Center
Mon 02:36:03 PM 47.9667 -67.4500 210° Southwest 440 506 39,000  Level Moncton Center
Mon 02:41:29 PM 47.3950 -67.9060 210° Southwest 438 504 39,000  Level FlightAware ADS-B
Mon 02:42:09 PM 47.3240 -67.9620 208° Southwest 437 503 39,000  Level FlightAware ADS-B
Mon 02:42:40 PM 47.2770 -67.9980 207° Southwest 437 503 39,000  Level FlightAware ADS-B
Mon 02:43:16 PM 47.2110 -68.0480 207° Southwest 437 503 39,000  Level FlightAware ADS-B
Mon 02:43:52 PM 47.2090 -68.0490 199° South 438 504 39,000  Level FlightAware ADS-B
Mon 02:44:26 PM 47.2110 -68.0480 19° North 438 504 39,000  Level FlightAware ADS-B
Mon 02:45:02 PM 47.2120 -68.0470 34° Northeast 437 503 39,000  Level FlightAware ADS-B
Mon 02:45:45 PM 46.9400 -68.2550 208° Southwest 534 615 39,000  Level FlightAware ADS-B
Mon 02:46:25 PM 46.8650 -68.3110 207° Southwest 435 501 39,000  Level FlightAware ADS-B
Mon 02:47:00 PM 46.8050 -68.3570 208° Southwest 433 498 39,000  Level FlightAware ADS-B
Mon 02:47:35 PM 46.7440 -68.4030 207° Southwest 432 497 39,000  Level FlightAware ADS-B
Mon 02:48:10 PM 46.6810 -68.4500 207° Southwest 432 497 39,000  Level FlightAware ADS-B
Mon 02:48:45 PM 46.6190 -68.4960 207° Southwest 432 497 39,000  Level FlightAware ADS-B
Mon 02:49:20 PM 46.5560 -68.5430 207° Southwest 429 494 39,000  Level FlightAware ADS-B
Mon 02:49:54 PM 46.5010 -68.5850 208° Southwest 427 491 39,000  Level FlightAware ADS-B
Mon 02:50:30 PM 46.4320 -68.6350 207° Southwest 426 490 39,000  Level FlightAware ADS-B
Mon 02:51:05 PM 46.3750 -68.6780 207° Southwest 424 488 39,000  Level FlightAware ADS-B
Mon 02:51:46 PM 46.3040 -68.7300 207° Southwest 423 487 39,000  Level FlightAware ADS-B
Mon 02:52:20 PM 46.2430 -68.7760 208° Southwest 422 486 39,000  Level FlightAware ADS-B
Mon 02:52:55 PM 46.1820 -68.8200 207° Southwest 420 483 39,000  Level FlightAware ADS-B
Mon 02:53:30 PM 46.1220 -68.8640 207° Southwest 419 482 39,000  Level FlightAware ADS-B
Mon 02:54:09 PM 46.0550 -68.9130 207° Southwest 420 483 39,000  Level FlightAware ADS-B
Mon 02:54:40 PM 46.0000 -68.9530 207° Southwest 419 482 39,000  Level FlightAware ADS-B
Mon 02:55:14 PM 45.9420 -68.9950 207° Southwest 416 479 39,000  Level FlightAware ADS-B
Mon 02:55:50 PM 45.8790 -69.0410 207° Southwest 415 478 39,000  Level FlightAware ADS-B
Mon 02:56:25 PM 45.8220 -69.0830 207° Southwest 414 476 39,000  Level FlightAware ADS-B
Mon 02:56:59 PM 45.7640 -69.1250 207° Southwest 412 474 39,000  Level FlightAware ADS-B
Mon 02:57:40 PM 45.6960 -69.1740 207° Southwest 410 472 39,000  Level FlightAware ADS-B
Mon 02:58:05 PM 45.6560 -69.2020 206° Southwest 409 471 39,000  Level FlightAware ADS-B
Mon 02:58:45 PM 45.5880 -69.2510 207° Southwest 407 468 39,000  Level FlightAware ADS-B
Mon 02:59:21 PM 45.5240 -69.2970 207° Southwest 405 466 39,000  Level FlightAware ADS-B
Mon 03:00:02 PM 45.4530 -69.3470 206° Southwest 405 466 39,000  Level FlightAware ADS-B
Mon 03:00:41 PM 45.3880 -69.3940 207° Southwest 404 465 39,000  Level FlightAware ADS-B
Mon 03:01:16 PM 45.3340 -69.4320 206° Southwest 406 467 39,000  Level FlightAware ADS-B
Mon 03:02:01 PM 45.2540 -69.4880 206° Southwest 407 468 39,000  Level FlightAware ADS-B
Mon 03:02:36 PM 45.1950 -69.5300 207° Southwest 406 467 39,000  Level FlightAware ADS-B
Mon 03:03:19 PM 45.1220 -69.5820 207° Southwest 405 466 39,000  Level FlightAware ADS-B
Mon 03:03:51 PM 45.0750 -69.6150 206° Southwest 405 466 39,000  Level FlightAware ADS-B
Mon 03:04:37 PM 44.9900 -69.6740 206° Southwest 406 467 39,000  Level FlightAware ADS-B
Mon 03:05:13 PM 44.9300 -69.7160 206° Southwest 407 468 39,000  Level FlightAware ADS-B
Mon 03:05:47 PM 44.8750 -69.7540 206° Southwest 408 470 39,000  Level FlightAware ADS-B
Mon 03:06:21 PM 44.8160 -69.7960 207° Southwest 409 471 39,000 -353 Level FlightAware ADS-B
Mon 03:06:55 PM 44.7570 -69.8360 206° Southwest 411 473 38,600 -857 Descending FlightAware ADS-B
Mon 03:07:31 PM 44.6940 -69.8800 206° Southwest 421 484 38,000 -514 Descending FlightAware ADS-B
Mon 03:08:05 PM 44.6380 -69.9190 206° Southwest 422 486 38,000  Level FlightAware ADS-B
Mon 03:08:41 PM 44.5720 -69.9640 206° Southwest 421 484 38,000  Level FlightAware ADS-B
Mon 03:09:17 PM 44.5100 -70.0070 206° Southwest 423 487 38,000  Level FlightAware ADS-B
Mon 03:09:55 PM 44.4450 -70.0510 206° Southwest 421 484 38,000  Level FlightAware ADS-B
Mon 03:10:27 PM 44.3870 -70.0910 206° Southwest 419 482 38,000  Level FlightAware ADS-B
Mon 03:11:02 PM 44.3310 -70.1300 206° Southwest 415 478 38,000  Level FlightAware ADS-B
Mon 03:11:35 PM 44.2690 -70.1710 205° Southwest 412 474 38,000  Level FlightAware ADS-B
Mon 03:12:11 PM 44.2080 -70.2130 206° Southwest 411 473 38,000  Level FlightAware ADS-B
Mon 03:12:49 PM 44.1460 -70.2550 206° Southwest 410 472 38,000  Level FlightAware ADS-B
Mon 03:13:25 PM 44.0830 -70.2980 206° Southwest 409 471 38,000  Level FlightAware ADS-B
Mon 03:13:57 PM 44.0270 -70.3350 205° Southwest 411 473 38,000  Level FlightAware ADS-B
Mon 03:14:33 PM 43.9670 -70.3760 206° Southwest 413 475 38,000  Level FlightAware ADS-B
Mon 03:15:09 PM 43.9030 -70.4190 206° Southwest 413 475 38,000  Level FlightAware ADS-B
Mon 03:15:41 PM 43.8490 -70.4550 206° Southwest 413 475 38,000  Level FlightAware ADS-B
Mon 03:16:18 PM 43.7870 -70.4970 206° Southwest 414 476 38,000  Level FlightAware ADS-B
Mon 03:16:51 PM 43.7290 -70.5350 205° Southwest 415 478 38,000  Level FlightAware ADS-B
Mon 03:17:25 PM 43.6690 -70.5750 206° Southwest 416 479 38,000  Level FlightAware ADS-B
Mon 03:18:03 PM 43.6030 -70.6190 206° Southwest 417 480 38,000  Level FlightAware ADS-B
Mon 03:18:35 PM 43.5470 -70.6560 206° Southwest 417 480 38,000  Level FlightAware ADS-B
Mon 03:19:11 PM 43.4860 -70.6960 205° Southwest 418 481 38,000  Level FlightAware ADS-B
Mon 03:19:45 PM 43.4250 -70.7370 206° Southwest 419 482 38,000  Level FlightAware ADS-B
Mon 03:20:25 PM 43.3560 -70.7820 205° Southwest 421 484 38,000  Level FlightAware ADS-B
Mon 03:20:57 PM 43.2990 -70.8190 205° Southwest 421 484 38,000  Level FlightAware ADS-B
Mon 03:21:33 PM 43.2380 -70.8590 206° Southwest 420 483 38,000  Level FlightAware ADS-B
Mon 03:22:09 PM 43.1740 -70.9020 206° Southwest 420 483 38,000  Level FlightAware ADS-B
Mon 03:22:41 PM 43.1170 -70.9380 205° Southwest 420 483 38,000  Level FlightAware ADS-B
Mon 03:23:15 PM 43.0600 -70.9760 206° Southwest 420 483 38,000  Level FlightAware ADS-B
Mon 03:23:54 PM 42.9910 -71.0200 205° Southwest 420 483 38,000  Level FlightAware ADS-B
Mon 03:24:29 PM 42.9280 -71.0630 207° Southwest 418 481 38,000  Level FlightAware ADS-B
Mon 03:25:01 PM 42.8790 -71.1100 215° Southwest 412 474 38,000  Level FlightAware ADS-B
Mon 03:25:37 PM 42.8220 -71.1660 216° Southwest 414 476 38,000  Level FlightAware ADS-B
Mon 03:26:13 PM 42.7670 -71.2210 216° Southwest 415 478 38,000  Level FlightAware ADS-B
Mon 03:26:47 PM 42.7140 -71.2720 215° Southwest 418 481 38,000  Level FlightAware ADS-B
Mon 03:27:23 PM 42.6570 -71.3280 216° Southwest 420 483 38,000  Level FlightAware ADS-B
Mon 03:27:59 PM 42.6010 -71.3830 216° Southwest 421 484 38,000  Level FlightAware ADS-B
Mon 03:28:31 PM 42.5500 -71.4340 216° Southwest 421 484 38,000  Level FlightAware ADS-B
Mon 03:29:07 PM 42.4940 -71.4880 215° Southwest 421 484 38,000  Level FlightAware ADS-B
Mon 03:29:43 PM 42.4380 -71.5420 215° Southwest 421 484 38,000  Level FlightAware ADS-B
Mon 03:30:19 PM 42.3810 -71.5970 215° Southwest 421 484 38,000  Level FlightAware ADS-B
Mon 03:30:51 PM 42.3300 -71.6470 216° Southwest 420 483 38,000  Level FlightAware ADS-B
Mon 03:31:29 PM 42.2690 -71.7060 216° Southwest 420 483 38,000  Level FlightAware ADS-B
Mon 03:32:05 PM 42.2130 -71.7600 216° Southwest 420 483 38,000  Level FlightAware ADS-B
Mon 03:32:41 PM 42.1560 -71.8150 216° Southwest 421 484 38,000  Level FlightAware ADS-B
Mon 03:33:13 PM 42.1050 -71.8640 215° Southwest 421 484 38,000  Level FlightAware ADS-B
Mon 03:33:49 PM 42.0490 -71.9170 215° Southwest 422 486 38,000  Level FlightAware ADS-B
Mon 03:34:23 PM 41.9930 -71.9700 215° Southwest 424 488 38,000  Level FlightAware ADS-B
Mon 03:35:01 PM 41.9310 -72.0290 215° Southwest 425 489 38,000  Level FlightAware ADS-B
Mon 03:35:32 PM 41.8840 -72.0740 215° Southwest 427 491 38,000  Level FlightAware ADS-B
Mon 03:36:07 PM 41.8270 -72.1290 216° Southwest 428 493 38,000  Level FlightAware ADS-B
Mon 03:36:41 PM 41.7840 -72.1700 215° Southwest 430 495 38,000  Level FlightAware ADS-B
Mon 03:37:16 PM 41.7250 -72.2250 215° Southwest 429 494 38,000  Level FlightAware ADS-B
Mon 03:37:51 PM 41.6660 -72.2810 215° Southwest 430 495 38,000  Level FlightAware ADS-B
Mon 03:38:31 PM 41.5980 -72.3450 215° Southwest 430 495 38,000  Level FlightAware ADS-B
Mon 03:39:09 PM 41.5360 -72.4030 215° Southwest 429 494 38,000  Level FlightAware ADS-B
Mon 03:39:47 PM 41.4770 -72.4580 215° Southwest 430 495 38,000  Level FlightAware ADS-B
Mon 03:40:27 PM 41.4060 -72.5240 215° Southwest 432 497 38,000  Level FlightAware ADS-B
Mon 03:41:02 PM 41.3490 -72.5770 215° Southwest 432 497 38,000  Level FlightAware ADS-B
Mon 03:41:34 PM 41.2970 -72.6250 215° Southwest 433 498 38,000  Level FlightAware ADS-B
Mon 03:42:15 PM 41.2280 -72.6900 215° Southwest 433 498 38,000  Level FlightAware ADS-B
Mon 03:42:45 PM 41.1800 -72.7340 215° Southwest 432 497 38,000  Level FlightAware ADS-B
Mon 03:43:20 PM 41.1230 -72.7870 215° Southwest 432 497 38,000  Level FlightAware ADS-B
Mon 03:44:00 PM 41.0580 -72.8470 215° Southwest 432 497 38,000  Level FlightAware ADS-B
Mon 03:44:30 PM 41.0080 -72.8930 215° Southwest 431 496 38,000  Level FlightAware ADS-B
Mon 03:45:10 PM 40.9430 -72.9520 214° Southwest 431 496 38,000  Level FlightAware ADS-B
Mon 03:45:39 PM 40.8922 -72.9988 215° Southwest 431 496 38,000  Level FlightAware ADS-B
Mon 03:46:13 PM 40.8372 -73.0491 215° Southwest 431 496 38,000  Level FlightAware ADS-B
Mon 03:46:44 PM 40.7870 -73.0949 215° Southwest 429 494 38,000  Level FlightAware ADS-B
Mon 03:47:15 PM 40.7366 -73.1407 215° Southwest 428 493 38,000  Level FlightAware ADS-B
Mon 03:47:47 PM 40.6839 -73.1886 215° Southwest 426 490 38,000  Level FlightAware ADS-B
Mon 03:48:17 PM 40.6352 -73.2328 215° Southwest 426 490 38,000  Level FlightAware ADS-B
Mon 03:48:48 PM 40.5845 -73.2787 215° Southwest 425 489 38,000  Level FlightAware ADS-B
Mon 03:49:21 PM 40.5321 -73.3259 214° Southwest 424 488 38,000  Level FlightAware ADS-B
Mon 03:49:51 PM 40.4830 -73.3701 214° Southwest 423 487 38,000  Level FlightAware ADS-B
Mon 03:50:23 PM 40.4340 -73.4140 214° Southwest 422 486 38,000  Level FlightAware ADS-B
Mon 03:50:44 PM 40.3977 -73.4468 215° Southwest 422 486 38,000  Level FlightAware ADS-B
Mon 03:51:16 PM 40.3466 -73.4927 214° Southwest 422 486 38,000  Level FlightAware ADS-B
Mon 03:51:52 PM 40.2881 -73.5450 214° Southwest 421 484 38,000  Level FlightAware ADS-B
Mon 03:52:36 PM 40.2187 -73.6071 214° Southwest 420 483 38,000  Level FlightAware ADS-B
Mon 03:53:10 PM 40.1643 -73.6556 214° Southwest 420 483 38,000  Level FlightAware ADS-B
Mon 03:53:55 PM 40.0914 -73.7204 214° Southwest 420 483 38,000  Level FlightAware ADS-B
Mon 03:54:25 PM 40.0425 -73.7638 214° Southwest 420 483 38,000  Level FlightAware ADS-B
Mon 03:55:00 PM 39.9872 -73.8127 214° Southwest 421 484 38,000  Level FlightAware ADS-B
Mon 03:55:30 PM 39.9383 -73.8559 214° Southwest 423 487 38,000  Level FlightAware ADS-B
Mon 03:56:04 PM 39.8835 -73.9042 214° Southwest 425 489 38,000  Level FlightAware ADS-B
Mon 03:56:41 PM 39.8226 -73.9579 214° Southwest 426 490 38,000  Level FlightAware ADS-B
Mon 03:57:13 PM 39.7720 -74.0030 214° Southwest 427 491 38,000  Level FlightAware ADS-B
Mon 03:57:48 PM 39.7132 -74.0539 214° Southwest 426 490 38,000  Level FlightAware ADS-B
Mon 03:58:23 PM 39.6564 -74.1036 214° Southwest 424 488 38,000  Level FlightAware ADS-B
Mon 03:58:54 PM 39.6069 -74.1468 214° Southwest 422 486 38,000  Level FlightAware ADS-B
Mon 03:59:38 PM 39.5345 -74.2100 214° Southwest 426 490 38,000  Level FlightAware ADS-B
Mon 04:00:09 PM 39.4846 -74.2534 214° Southwest 426 490 38,000  Level FlightAware ADS-B
Mon 04:00:40 PM 39.4334 -74.2979 214° Southwest 425 489 38,000  Level FlightAware ADS-B
Mon 04:01:11 PM 39.3830 -74.3416 214° Southwest 425 489 38,000  Level FlightAware ADS-B
Mon 04:01:42 PM 39.3331 -74.3846 214° Southwest 427 491 38,000  Level FlightAware ADS-B
Mon 04:02:12 PM 39.2835 -74.4276 214° Southwest 427 491 38,000  Level FlightAware ADS-B
Mon 04:02:42 PM 39.2337 -74.4704 214° Southwest 428 493 38,000  Level FlightAware ADS-B
Mon 04:03:12 PM 39.1842 -74.5130 214° Southwest 428 493 38,000  Level FlightAware ADS-B
Mon 04:03:46 PM 39.1289 -74.5605 214° Southwest 430 495 38,000  Level FlightAware ADS-B
Mon 04:04:27 PM 39.0611 -74.6187 214° Southwest 431 496 38,000  Level FlightAware ADS-B
Mon 04:05:04 PM 38.9987 -74.6719 214° Southwest 433 498 38,000  Level FlightAware ADS-B
Mon 04:05:28 PM 38.9583 -74.7059 213° Southwest 436 502 38,000  Level FlightAware ADS-B
Mon 04:06:00 PM 38.8993 -74.7421 206° Southwest 442 509 38,000  Level FlightAware ADS-B
Mon 04:06:34 PM 38.8365 -74.7764 203° Southwest 446 513 38,000  Level FlightAware ADS-B
Mon 04:07:16 PM 38.7562 -74.8234 205° Southwest 445 512 38,000  Level FlightAware ADS-B
Mon 04:07:48 PM 38.7010 -74.8653 211° Southwest 440 506 38,000  Level FlightAware ADS-B
Mon 04:08:20 PM 38.6480 -74.9050 210° Southwest 441 507 38,000  Level FlightAware ADS-B
Mon 04:08:52 PM 38.5887 -74.9500 211° Southwest 442 509 38,000  Level FlightAware ADS-B
Mon 04:09:22 PM 38.5349 -74.9906 211° Southwest 444 511 38,000  Level FlightAware ADS-B
Mon 04:09:52 PM 38.4814 -75.0311 211° Southwest 444 511 38,000  Level FlightAware ADS-B
Mon 04:10:49 PM 38.3870 -75.1020 210° Southwest 445 512 38,000  Level FlightAware ADS-B
Mon 04:11:03 PM 38.3583 -75.1238 211° Southwest 445 512 38,000  Level FlightAware ADS-B
Mon 04:11:33 PM 38.3024 -75.1657 210° Southwest 445 512 38,000  Level FlightAware ADS-B
Mon 04:12:06 PM 38.2455 -75.2084 211° Southwest 443 510 38,000  Level FlightAware ADS-B
Mon 04:13:05 PM 38.1480 -75.2810 210° Southwest 435 501 38,000  Level FlightAware ADS-B
Mon 04:13:48 PM 38.0658 -75.3425 211° Southwest 443 510 38,000  Level FlightAware ADS-B
Mon 04:14:19 PM 38.0111 -75.3832 210° Southwest 443 510 38,000  Level FlightAware ADS-B
Mon 04:14:49 PM 37.9567 -75.4235 210° Southwest 443 510 38,000  Level FlightAware ADS-B
Mon 04:15:23 PM 37.8968 -75.4680 210° Southwest 443 510 38,000  Level FlightAware ADS-B
Mon 04:16:00 PM 37.8350 -75.5140 210° Southwest 435 501 38,000  Level FlightAware ADS-B
Mon 04:16:21 PM 37.7939 -75.5441 210° Southwest 443 510 38,000  Level FlightAware ADS-B
Mon 04:16:52 PM 37.7408 -75.5833 210° Southwest 443 510 38,000  Level FlightAware ADS-B
Mon 04:17:23 PM 37.6854 -75.6240 210° Southwest 442 509 38,000  Level FlightAware ADS-B
Mon 04:17:54 PM 37.6310 -75.6641 210° Southwest 444 511 38,000  Level FlightAware ADS-B
Mon 04:18:25 PM 37.5749 -75.7052 210° Southwest 445 512 38,000  Level FlightAware ADS-B
Mon 04:18:57 PM 37.5195 -75.7458 210° Southwest 445 512 38,000  Level FlightAware ADS-B
Mon 04:20:00 PM 37.4110 -75.8250 210° Southwest 447 514 38,000  Level FlightAware ADS-B
Mon 04:20:30 PM 37.3550 -75.8660 210° Southwest 447 514 38,000  Level FlightAware ADS-B
Mon 04:21:08 PM 37.2870 -75.9150 210° Southwest 448 516 38,000  Level FlightAware ADS-B
Mon 04:21:47 PM 37.2220 -75.9620 210° Southwest 450 518 38,000  Level FlightAware ADS-B
Mon 04:21:56 PM 37.1977 -75.9801 211° Southwest 451 519 38,000  Level FlightAware ADS-B
Mon 04:22:26 PM 37.1432 -76.0195 210° Southwest 453 521 38,000  Level FlightAware ADS-B
Mon 04:23:01 PM 37.0793 -76.0656 210° Southwest 454 522 38,000  Level FlightAware ADS-B
Mon 04:23:34 PM 37.0191 -76.1090 210° Southwest 455 524 38,000  Level FlightAware ADS-B
Mon 04:24:23 PM 36.9297 -76.1731 210° Southwest 455 524 38,000  Level FlightAware ADS-B
Mon 04:25:18 PM 36.8210 -76.2150 197° South 464 534 38,000  Level FlightAware ADS-B
Mon 04:25:55 PM 36.7550 -76.2340 193° South 464 534 38,000  Level FlightAware ADS-B
Mon 04:27:49 PM 36.5150 -76.3090 194° South 449 517 38,000  Level FlightAware ADS-B
Mon 04:28:25 PM 36.4360 -76.3330 194° South 451 519 38,000  Level FlightAware ADS-B
Mon 04:28:40 PM 36.4080 -76.3470 202° Southwest 433 498 38,000  Level FlightAware ADS-B
Mon 04:29:10 PM 36.3560 -76.3870 212° Southwest 434 499 38,000  Level FlightAware ADS-B
Mon 04:29:49 PM 36.2870 -76.4390 211° Southwest 435 501 38,000  Level FlightAware ADS-B
Mon 04:30:18 PM 36.2440 -76.4730 213° Southwest 436 502 38,000  Level FlightAware ADS-B
Mon 04:30:56 PM 36.1740 -76.5260 211° Southwest 436 502 38,000  Level FlightAware ADS-B
Mon 04:31:31 PM 36.1130 -76.5720 211° Southwest 436 502 38,000  Level FlightAware ADS-B
Mon 04:32:11 PM 36.0470 -76.6220 211° Southwest 436 502 38,000  Level FlightAware ADS-B
Mon 04:32:56 PM 35.9720 -76.6790 212° Southwest 436 502 38,000  Level FlightAware ADS-B
Mon 04:33:49 PM 35.8830 -76.7460 211° Southwest 437 503 38,000  Level FlightAware ADS-B
Mon 04:34:25 PM 35.8300 -76.7850 211° Southwest 437 503 38,000  Level FlightAware ADS-B
Mon 04:35:01 PM 35.7770 -76.8240 211° Southwest 437 503 38,000  Level FlightAware ADS-B
Mon 04:35:37 PM 35.7240 -76.8640 211° Southwest 437 503 38,000  Level FlightAware ADS-B
Mon 04:36:10 PM 35.6333 -76.9286 211° Southwest 440 506 38,000  Level Washington Center
Mon 04:37:11 PM 35.5447 -76.9986 213° Southwest 431 496 38,000  Level Washington Center
Mon 04:38:11 PM 35.4417 -77.0758 211° Southwest 436 502 38,000  Level Washington Center
Mon 04:39:12 PM 35.3383 -77.1503 210° Southwest 436 502 38,000  Level Washington Center
Mon 04:40:12 PM 35.2353 -77.2297 212° Southwest 436 502 38,000  Level Washington Center
Mon 04:41:12 PM 35.1297 -77.3064 211° Southwest 436 502 38,000  Level Washington Center
Mon 04:42:10 PM 35.0264 -77.3828 211° Southwest 436 502 38,000  Level Washington Center
Mon 04:43:10 PM 34.9208 -77.4589 211° Southwest 436 502 38,000  Level Washington Center
Mon 04:44:12 PM 34.8233 -77.5631 221° Southwest 436 502 38,000  Level Washington Center
Mon 04:45:10 PM 34.7528 -77.6650 230° Southwest 429 494 38,000  Level Washington Center
Mon 04:51:25 PM 34.0310 -78.0260 230° Southwest 461 531 38,000  Level FlightAware ADS-B
Mon 04:52:15 PM 33.9380 -78.0480 191° South 461 531 38,000  Level FlightAware ADS-B
Mon 04:52:50 PM 33.8540 -78.0700 192° South 462 532 38,000  Level FlightAware ADS-B
Mon 04:53:20 PM 33.7920 -78.0860 192° South 464 534 38,000  Level FlightAware ADS-B
Mon 04:53:55 PM 33.7140 -78.1050 191° South 467 537 38,000  Level FlightAware ADS-B
Mon 04:54:35 PM 33.6420 -78.1220 191° South 467 537 38,000  Level FlightAware ADS-B
Mon 04:55:15 PM 33.5500 -78.1460 192° South 467 537 38,000  Level FlightAware ADS-B
Mon 04:56:25 PM 33.3980 -78.1840 192° South 468 539 38,000  Level FlightAware ADS-B
Mon 04:57:05 PM 33.3210 -78.2020 191° South 468 539 38,000  Level FlightAware ADS-B
Mon 04:57:50 PM 33.2180 -78.2290 192° South 467 537 38,000  Level FlightAware ADS-B
Mon 04:58:25 PM 33.1460 -78.2460 191° South 467 537 38,000  Level FlightAware ADS-B
Mon 04:59:00 PM 33.0750 -78.2640 192° South 467 537 38,000  Level FlightAware ADS-B
Mon 04:59:45 PM 32.9750 -78.2890 192° South 467 537 38,000  Level FlightAware ADS-B
Mon 05:00:20 PM 32.9010 -78.3070 192° South 465 535 38,000  Level FlightAware ADS-B
Mon 05:01:00 PM 32.8180 -78.3270 191° South 464 534 38,000  Level FlightAware ADS-B
Mon 05:01:35 PM 32.7440 -78.3450 192° South 464 534 38,000  Level FlightAware ADS-B
Mon 05:02:05 PM 32.6840 -78.3600 192° South 463 533 38,000  Level FlightAware ADS-B
Mon 05:02:40 PM 32.6080 -78.3790 192° South 462 532 38,000  Level FlightAware ADS-B
Mon 05:03:20 PM 32.5270 -78.3980 191° South 462 532 38,000  Level FlightAware ADS-B
Mon 05:04:01 PM 32.4440 -78.4180 191° South 461 531 38,000  Level FlightAware ADS-B
Mon 05:04:30 PM 32.3780 -78.4360 193° South 461 531 38,000  Level FlightAware ADS-B
Mon 05:05:09 PM 32.3090 -78.4560 194° South 461 531 38,000  Level FlightAware ADS-B
Mon 05:05:45 PM 32.2270 -78.4810 194° South 462 532 38,000  Level FlightAware ADS-B
Mon 05:06:25 PM 32.1560 -78.5010 193° South 462 532 38,000  Level FlightAware ADS-B
Mon 05:07:47 PM 32.0910 -78.5190 193° South 462 532 38,000  Level FlightAware ADS-B
Mon 05:08:23 PM 32.0270 -78.5360 193° South 462 532 38,000  Level FlightAware ADS-B
Mon 05:08:59 PM 31.9630 -78.5530 193° South 462 532 38,000  Level FlightAware ADS-B
Mon 05:09:35 PM 31.9000 -78.5710 194° South 462 532 38,000  Level FlightAware ADS-B
Mon 05:10:12 PM 31.8340 -78.5880 192° South 462 532 38,000  Level FlightAware ADS-B
Mon 05:10:15 PM 32.2270 -78.4810 13° North 38,000  Level FlightAware ADS-B
Mon 05:11:19 PM 31.5392 -78.6831 13° North 471 542 38,000  Level Jacksonville Center
Mon 05:12:19 PM 31.4153 -78.7178 193° South 471 542 38,000  Level Jacksonville Center
Mon 05:13:19 PM 31.2908 -78.7503 193° South 471 542 38,000  Level Jacksonville Center
Mon 05:14:19 PM 31.1669 -78.7872 194° South 466 536 38,000  Level Jacksonville Center
Mon 05:15:19 PM 31.0386 -78.8267 195° South 471 542 38,000  Level Jacksonville Center
Mon 05:16:19 PM 30.9125 -78.8589 192° South 471 542 38,000  Level Jacksonville Center
Mon 05:17:19 PM 30.7925 -78.8928 194° South 461 531 38,000  Level Jacksonville Center
Mon 05:19:12 PM 30.5419 -78.9625 193° South 488 562 38,000  Level Miami Center
Mon 05:20:12 PM 30.4164 -78.9961 193° South 475 547 38,000  Level Miami Center
Mon 05:21:12 PM 30.3011 -79.0489 202° Southwest 469 540 38,000  Level Miami Center
Mon 05:22:12 PM 30.1753 -79.1017 200° South 469 540 38,000  Level Miami Center
Mon 05:23:12 PM 30.0575 -79.1519 200° South 469 540 38,000  Level Miami Center
Mon 05:24:12 PM 29.9378 -79.2139 204° Southwest 469 540 38,000  Level Miami Center
Mon 05:25:12 PM 29.8181 -79.2686 202° Southwest 469 540 38,000  Level Miami Center
Mon 05:26:12 PM 29.6964 -79.3136 198° South 469 540 38,000  Level Miami Center
Mon 05:27:12 PM 29.5764 -79.3683 202° Southwest 469 540 38,000  Level Miami Center
Mon 05:33:17 PM 28.8310 -79.6160 202° Southwest 452 520 38,000  Level FlightAware ADS-B
Mon 05:33:56 PM 28.7630 -79.6280 189° South 452 520 38,000  Level FlightAware ADS-B
Mon 05:34:42 PM 28.6500 -79.6480 189° South 454 522 38,000  Level FlightAware ADS-B
Mon 05:35:22 PM 28.5590 -79.6650 189° South 460 529 38,000  Level FlightAware ADS-B
Mon 05:36:14 PM 28.4560 -79.6820 188° South 468 539 38,000  Level FlightAware ADS-B
Mon 05:36:47 PM 28.3790 -79.6970 190° South 457 526 38,000  Level FlightAware ADS-B
Mon 05:37:23 PM 28.2980 -79.7110 189° South 467 537 38,000  Level FlightAware ADS-B
Mon 05:37:57 PM 28.2280 -79.7240 189° South 469 540 38,000  Level FlightAware ADS-B
Mon 05:38:42 PM 28.1380 -79.7400 189° South 470 541 38,000  Level FlightAware ADS-B
Mon 05:39:28 PM 28.0350 -79.7730 196° South 468 539 38,000  Level FlightAware ADS-B
Mon 05:40:02 PM 27.9660 -79.8010 200° South 466 536 38,000  Level FlightAware ADS-B
Mon 05:40:37 PM 27.8900 -79.8320 200° South 466 536 38,000  Level FlightAware ADS-B
Mon 05:41:12 PM 27.8170 -79.8620 200° South 464 534 38,000  Level FlightAware ADS-B
Mon 05:41:47 PM 27.7460 -79.8910 200° South 463 533 38,000  Level FlightAware ADS-B
Mon 05:42:22 PM 27.6770 -79.9190 200° South 461 531 38,000  Level FlightAware ADS-B
Mon 05:42:57 PM 27.6030 -79.9500 200° South 461 531 38,000  Level FlightAware ADS-B
Mon 05:43:32 PM 27.5320 -79.9780 199° South 460 529 38,000  Level FlightAware ADS-B
Mon 05:44:12 PM 27.4500 -80.0120 200° South 462 532 38,000  Level FlightAware ADS-B
Mon 05:44:47 PM 27.3840 -80.0390 200° South 463 533 38,000  Level FlightAware ADS-B
Mon 05:45:27 PM 27.2960 -80.0740 199° South 462 532 38,000  Level FlightAware ADS-B
Mon 05:46:02 PM 27.2240 -80.1030 200° South 460 529 38,000  Level FlightAware ADS-B
Mon 05:46:32 PM 27.1660 -80.1270 200° South 459 528 38,000  Level FlightAware ADS-B
Mon 05:47:12 PM 27.0810 -80.1610 200° South 464 534 38,000  Level FlightAware ADS-B
Mon 05:47:47 PM 27.0110 -80.1890 200° South 463 533 38,000  Level FlightAware ADS-B
Mon 05:48:17 PM 26.9510 -80.2130 200° South 462 532 38,000  Level FlightAware ADS-B
Mon 05:48:52 PM 26.8800 -80.2420 200° South 463 533 38,000  Level FlightAware ADS-B
Mon 05:49:32 PM 26.7990 -80.2750 200° South 462 532 38,000  Level FlightAware ADS-B
Mon 05:50:02 PM 26.7400 -80.2980 199° South 465 535 38,000  Level FlightAware ADS-B
Mon 05:50:37 PM 26.6670 -80.3270 200° South 465 535 38,000  Level FlightAware ADS-B
Mon 05:51:17 PM 26.5880 -80.3590 200° South 458 527 38,000  Level FlightAware ADS-B
Mon 05:51:47 PM 26.5250 -80.3840 200° South 461 531 38,000  Level FlightAware ADS-B
Mon 05:52:21 PM 26.4540 -80.4120 199° South 465 535 38,000  Level FlightAware ADS-B
Mon 05:53:01 PM 26.3720 -80.4450 200° South 475 547 38,000  Level FlightAware ADS-B
Mon 05:53:42 PM 26.2890 -80.4780 200° South 477 549 38,000  Level FlightAware ADS-B
Mon 05:54:16 PM 26.2160 -80.5070 200° South 477 549 38,000  Level FlightAware ADS-B
Mon 05:54:57 PM 26.1310 -80.5410 200° South 477 549 38,000  Level FlightAware ADS-B
Mon 05:55:32 PM 26.0580 -80.5700 200° South 475 547 38,000  Level FlightAware ADS-B
Mon 05:56:12 PM 25.9750 -80.6030 200° South 466 536 38,000  Level FlightAware ADS-B
Mon 05:56:42 PM 25.9130 -80.6270 199° South 465 535 38,000  Level FlightAware ADS-B
Mon 05:57:17 PM 25.8400 -80.6570 200° South 474 545 38,000  Level FlightAware ADS-B
Mon 05:57:32 PM 25.8120 -80.6740 209° Southwest 479 551 38,000  Level FlightAware ADS-B
Mon 05:57:47 PM 25.7870 -80.6970 220° Southwest 477 549 38,000  Level FlightAware ADS-B
Mon 05:58:23 PM 25.7280 -80.7590 223° Southwest 484 557 38,000  Level FlightAware ADS-B
Mon 05:58:57 PM 25.6730 -80.8170 224° Southwest 475 547 38,000  Level FlightAware ADS-B
Mon 05:59:32 PM 25.6150 -80.8760 223° Southwest 473 544 38,000  Level FlightAware ADS-B
Mon 06:00:07 PM 25.5580 -80.9350 223° Southwest 473 544 38,000  Level FlightAware ADS-B
Mon 06:00:42 PM 25.5010 -80.9950 224° Southwest 471 542 38,000  Level FlightAware ADS-B
Mon 06:01:17 PM 25.4460 -81.0520 223° Southwest 471 542 38,000  Level FlightAware ADS-B
Mon 06:01:52 PM 25.3910 -81.1080 223° Southwest 470 541 38,000  Level FlightAware ADS-B
Mon 06:02:27 PM 25.3330 -81.1680 223° Southwest 468 539 38,000  Level FlightAware ADS-B
Mon 06:03:03 PM 25.2760 -81.2270 223° Southwest 467 537 38,000  Level FlightAware ADS-B
Mon 06:03:37 PM 25.2210 -81.2830 223° Southwest 468 539 38,000  Level FlightAware ADS-B
Mon 06:04:13 PM 25.1640 -81.3410 223° Southwest 469 540 38,000  Level FlightAware ADS-B
Mon 06:04:47 PM 25.1080 -81.3990 223° Southwest 468 539 38,000  Level FlightAware ADS-B
Mon 06:05:22 PM 25.0520 -81.4560 223° Southwest 466 536 38,000  Level FlightAware ADS-B
Mon 06:06:01 PM 24.9890 -81.5210 223° Southwest 464 534 38,000 -162 Level FlightAware ADS-B
Mon 06:06:36 PM 24.9330 -81.5770 222° Southwest 465 535 37,800 -800 Descending FlightAware ADS-B
Mon 06:07:16 PM 24.8690 -81.6430 223° Southwest 467 537 37,000 -1,200 Descending FlightAware ADS-B
Mon 06:07:51 PM 24.8140 -81.6990 223° Southwest 481 554 36,300 -1,352 Descending FlightAware ADS-B
Mon 06:08:27 PM 24.7540 -81.7590 222° Southwest 484 557 35,400 -1,818 Descending FlightAware ADS-B
Mon 06:08:57 PM 24.7040 -81.8110 223° Southwest 488 562 34,300 -1,754 Descending FlightAware ADS-B
Mon 06:09:32 PM 24.6450 -81.8700 222° Southwest 479 551 33,500 -1,629 Descending FlightAware ADS-B
Mon 06:10:07 PM 24.5910 -81.9250 223° Southwest 469 540 32,400 -1,840 Descending FlightAware ADS-B
Mon 06:10:47 PM 24.5260 -81.9900 222° Southwest 465 535 31,200 -1,971 Descending FlightAware ADS-B
Mon 06:11:17 PM 24.4770 -82.0400 223° Southwest 461 531 30,100 -1,781 Descending FlightAware ADS-B
Mon 06:11:51 PM 24.4240 -82.0930 222° Southwest 442 509 29,300 -2,057 Descending FlightAware ADS-B
Mon 06:12:27 PM 24.3710 -82.1470 223° Southwest 456 525 27,700 -2,667 Descending FlightAware ADS-B
Mon 06:13:12 PM 24.2990 -82.2200 223° Southwest 464 534 25,700 -1,517 Descending FlightAware ADS-B
Mon 06:13:54 PM 24.2420 -82.2760 222° Southwest 460 529 25,500 -2,684 Descending FlightAware ADS-B
Mon 06:14:28 PM 24.1830 -82.3360 223° Southwest 426 490 22,300 -2,630 Descending FlightAware ADS-B
Mon 06:15:07 PM 24.1350 -82.3850 223° Southwest 426 490 22,300 -225 Level FlightAware ADS-B
Mon 06:15:48 PM 24.0880 -82.4320 222° Southwest 403 464 22,000 -575 Descending FlightAware ADS-B
Mon 06:16:20 PM 24.0380 -82.4800 221° Southwest 375 432 21,600 -353 Descending FlightAware ADS-B
Mon 06:16:56 PM 23.9990 -82.5190 222° Southwest 375 432 21,600  Level FlightAware ADS-B
Mon 06:17:32 PM 23.9590 -82.5580 222° Southwest 375 432 21,600  Level FlightAware ADS-B
Mon 06:18:09 PM 23.9190 -82.5980 222° Southwest 375 432 21,600  Level FlightAware ADS-B
Mon 06:18:46 PM 23.8780 -82.6380 222° Southwest 375 432 21,600  Level FlightAware ADS-B
Mon 06:19:23 PM 23.8380 -82.6780 222° Southwest 375 432 21,600  Level FlightAware ADS-B
Mon 06:25:00 PM 23.1703 -82.4662 164° South  Level Estimated
Mon 06:26:00 PM 23.0514 -82.4287 164° South  Level Estimated
Mon 06:27:00 PM 22.9891 -82.4091 164° South  Level Estimated
Mon 06:28:00 PM 22.9891 -82.4091 51° Northeast  Level Estimated
Mon 06:29:00 PM 22.9891 -82.4091 51° Northeast  Level Estimated
Mon 06:30:00 PM 22.9891 -82.4091 51° Northeast  Level Estimated
Mon 06:31:00 PM 22.9891 -82.4091 51° Northeast  Level Estimated
Mon 06:32:00 PM 22.9891 -82.4091 51° Northeast  Level Estimated
Mon 06:33:00 PM 22.9891 -82.4091 51° Northeast  Level Estimated
Mon 06:34:00 PM 22.9891 -82.4091 51° Northeast  Level Estimated
Mon 06:35:00 PM 22.9891 -82.4091 51° Northeast  Level Estimated
Mon 06:36:00 PM 22.9891 -82.4091 51° Northeast  Level Estimated
Mon 06:37:00 PM 22.9891 -82.4091 51° Northeast  Level Estimated
Mon 06:38:00 PM 22.9891 -82.4091 51° Northeast  Level Estimated
Mon 06:39:00 PM 22.9891 -82.4091 51° Northeast  Level Estimated
Mon 06:40:00 PM 22.9891 -82.4091 51° Northeast  Level Estimated
Mon 06:41:00 PM 22.9891 -82.4091 51° Northeast  Level Estimated
Mon 06:42:00 PM 22.9891 -82.4091 51° Northeast  Level Estimated
Mon 06:43:00 PM 22.9891 -82.4091 51° Northeast  Level Estimated
Mon 06:44:00 PM 22.9891 -82.4091 51° Northeast  Level Estimated
Mon 06:45:00 PM 22.9891 -82.4091 51° Northeast  Level Estimated
Mon 06:46:00 PM 22.9891 -82.4091 51° Northeast  Level Estimated
Mon 06:47:00 PM 22.9891 -82.4091 51° Northeast  Level Estimated
Mon 06:48:00 PM 22.9891 -82.4091 51° Northeast  Level Estimated

Login

Don't have an account? Register now (free) for customized features, flight alerts, and more!